FIN99 EFHK-VHHH
Flight info
| Callsign | FIN99 |
|---|---|
| Flight time | 11h 8m |
| Altitude | 36000 |
| Route | KOIVU DCT LARTI DCT NAVOT DCT LUTAL DCT BERIL/N0483F370 DCT BOKSU/N0483F360 DCT TOXAR DCT ROBTU/N0482F370 DCT KENIN DCT SAT DCT DINRO DCT UDROS UM859 KARDE UL851 TBN UM11 REBLO/N0494F390 M11 LUSAL N199 RASAM L88 METKA B476 DARVA/K0896F390 T898 OGOLI N193 SR L163 TISIB L141 KAMUD/K0898S1190 W186 ISBEB/K0896S1250 W186 SADAN Y1 OMBON W245 OVRAL B330 KWE W181 DUDIT A599 POU R473 SIERA |
| Aircraft | A359/H-SDE2E3GHIJ3J4J5LM1ORWXY/LB1D1 |
Departure
| Time | 2026-05-04 19:22 |
|---|---|
| Airport | Helsinki Vantaa Airport (EFHK) |
Arrival
| Time | 2026-05-05 06:31 |
|---|---|
| Airport | Hong Kong International Airport (VHHH) |
| Time | Latitude | Longitude | Altitude | Speed | Heading |
|---|---|---|---|---|---|
| 2026-05-04 18:57 | 60.31387 | 24.95858 | 168 ft | 0 kts | 329° |
| 2026-05-04 19:08 | 60.31380 | 24.95867 | 167 ft | 2 kts | 327° |
| 2026-05-04 19:09 | 60.31366 | 24.95886 | 167 ft | 2 kts | 322° |
| 2026-05-04 19:09 | 60.31354 | 24.95907 | 167 ft | 2 kts | 314° |
| 2026-05-04 19:09 | 60.31344 | 24.95933 | 167 ft | 2 kts | 297° |
| 2026-05-04 19:09 | 60.31339 | 24.95965 | 167 ft | 2 kts | 263° |
| 2026-05-04 19:10 | 60.31344 | 24.95994 | 167 ft | 1 kts | 234° |
| 2026-05-04 19:10 | 60.31345 | 24.95998 | 167 ft | 0 kts | 231° |
| 2026-05-04 19:15 | 60.31302 | 24.95903 | 167 ft | 17 kts | 227° |
| 2026-05-04 19:15 | 60.31220 | 24.95723 | 167 ft | 17 kts | 227° |
| 2026-05-04 19:16 | 60.31162 | 24.95541 | 167 ft | 14 kts | 270° |
| 2026-05-04 19:16 | 60.31220 | 24.95412 | 167 ft | 13 kts | 318° |
| 2026-05-04 19:16 | 60.31296 | 24.95275 | 167 ft | 15 kts | 318° |
| 2026-05-04 19:16 | 60.31375 | 24.95129 | 167 ft | 16 kts | 315° |
| 2026-05-04 19:17 | 60.31454 | 24.94980 | 167 ft | 15 kts | 343° |
| 2026-05-04 19:17 | 60.31532 | 24.95088 | 168 ft | 16 kts | 47° |
| 2026-05-04 19:17 | 60.31627 | 24.95298 | 168 ft | 24 kts | 47° |
| 2026-05-04 19:17 | 60.31747 | 24.95564 | 168 ft | 26 kts | 47° |
| 2026-05-04 19:18 | 60.31870 | 24.95834 | 167 ft | 26 kts | 47° |
| 2026-05-04 19:18 | 60.31994 | 24.96107 | 168 ft | 27 kts | 47° |
| 2026-05-04 19:18 | 60.32118 | 24.96381 | 168 ft | 27 kts | 47° |
| 2026-05-04 19:18 | 60.32245 | 24.96661 | 167 ft | 27 kts | 47° |
| 2026-05-04 19:19 | 60.32374 | 24.96945 | 166 ft | 28 kts | 47° |
| 2026-05-04 19:19 | 60.32507 | 24.97232 | 168 ft | 28 kts | 47° |
| 2026-05-04 19:19 | 60.32638 | 24.97516 | 168 ft | 28 kts | 48° |
| 2026-05-04 19:19 | 60.32767 | 24.97805 | 168 ft | 28 kts | 48° |
| 2026-05-04 19:20 | 60.32898 | 24.98062 | 168 ft | 21 kts | 24° |
| 2026-05-04 19:20 | 60.33002 | 24.97999 | 169 ft | 16 kts | 321° |
| 2026-05-04 19:20 | 60.33043 | 24.97855 | 172 ft | 10 kts | 242° |
| 2026-05-04 19:20 | 60.33011 | 24.97782 | 171 ft | 0 kts | 227° |
| 2026-05-04 19:21 | 60.32982 | 24.97717 | 171 ft | 25 kts | 227° |
| 2026-05-04 19:21 | 60.32725 | 24.97151 | 170 ft | 82 kts | 227° |
| 2026-05-04 19:22 | 60.32233 | 24.96065 | 171 ft | 129 kts | 227° |
| 2026-05-04 19:22 | 60.31538 | 24.94544 | 324 ft | 155 kts | 227° |
| 2026-05-04 19:22 | 60.30814 | 24.93046 | 933 ft | 144 kts | 227° |
| 2026-05-04 19:22 | 60.30021 | 24.91865 | 1492 ft | 142 kts | 208° |
| 2026-05-04 19:23 | 60.29111 | 24.91115 | 1962 ft | 145 kts | 213° |
| 2026-05-04 19:23 | 60.28186 | 24.90064 | 2207 ft | 161 kts | 218° |
| 2026-05-04 19:23 | 60.27175 | 24.88823 | 2459 ft | 180 kts | 218° |
| 2026-05-04 19:23 | 60.26050 | 24.87451 | 2736 ft | 198 kts | 217° |
| 2026-05-04 19:24 | 60.24819 | 24.85965 | 3083 ft | 213 kts | 216° |
| 2026-05-04 19:24 | 60.23466 | 24.84517 | 3550 ft | 227 kts | 206° |
| 2026-05-04 19:24 | 60.21933 | 24.83613 | 4208 ft | 232 kts | 199° |
| 2026-05-04 19:24 | 60.20348 | 24.82889 | 4827 ft | 236 kts | 198° |
| 2026-05-04 19:25 | 60.18761 | 24.82178 | 5416 ft | 238 kts | 199° |
| 2026-05-04 19:25 | 60.17124 | 24.81439 | 6033 ft | 240 kts | 199° |
| 2026-05-04 19:25 | 60.15497 | 24.80699 | 6624 ft | 242 kts | 199° |
| 2026-05-04 19:25 | 60.13846 | 24.79936 | 7157 ft | 249 kts | 199° |
| 2026-05-04 19:26 | 60.12116 | 24.79130 | 7570 ft | 260 kts | 199° |
| 2026-05-04 19:26 | 60.10334 | 24.78313 | 8200 ft | 264 kts | 199° |
| 2026-05-04 19:26 | 60.08537 | 24.77493 | 8892 ft | 266 kts | 199° |
| 2026-05-04 19:26 | 60.06726 | 24.76666 | 9619 ft | 267 kts | 200° |
| 2026-05-04 19:27 | 60.04891 | 24.75823 | 10108 ft | 276 kts | 200° |
| 2026-05-04 19:27 | 60.02963 | 24.74928 | 10393 ft | 293 kts | 200° |
| 2026-05-04 19:27 | 60.00925 | 24.73986 | 10678 ft | 308 kts | 199° |
| 2026-05-04 19:27 | 59.98783 | 24.73003 | 10963 ft | 324 kts | 199° |
| 2026-05-04 19:28 | 59.96537 | 24.71978 | 11255 ft | 338 kts | 199° |
| 2026-05-04 19:28 | 59.94195 | 24.70911 | 11549 ft | 351 kts | 198° |
| 2026-05-04 19:28 | 59.91786 | 24.69821 | 12021 ft | 357 kts | 198° |
| 2026-05-04 19:28 | 59.89351 | 24.68722 | 12609 ft | 361 kts | 198° |
| 2026-05-04 19:29 | 59.86886 | 24.67609 | 13221 ft | 364 kts | 198° |
| 2026-05-04 19:29 | 59.84408 | 24.66490 | 13799 ft | 366 kts | 198° |
| 2026-05-04 19:29 | 59.81917 | 24.65357 | 14364 ft | 369 kts | 199° |
| 2026-05-04 19:29 | 59.79410 | 24.64180 | 14899 ft | 371 kts | 199° |
| 2026-05-04 19:30 | 59.76889 | 24.62980 | 15430 ft | 374 kts | 199° |
| 2026-05-04 19:30 | 59.74351 | 24.61769 | 15982 ft | 376 kts | 199° |
| 2026-05-04 19:30 | 59.71799 | 24.60556 | 16525 ft | 379 kts | 199° |
| 2026-05-04 19:30 | 59.69227 | 24.59341 | 17067 ft | 381 kts | 199° |
| 2026-05-04 19:31 | 59.66635 | 24.58122 | 17616 ft | 384 kts | 199° |
| 2026-05-04 19:31 | 59.64031 | 24.56861 | 18125 ft | 386 kts | 200° |
| 2026-05-04 19:31 | 59.61424 | 24.55512 | 18616 ft | 389 kts | 201° |
| 2026-05-04 19:31 | 59.58800 | 24.54117 | 19055 ft | 392 kts | 201° |
| 2026-05-04 19:32 | 59.56185 | 24.52722 | 19525 ft | 395 kts | 201° |
| 2026-05-04 19:32 | 59.53513 | 24.51306 | 20029 ft | 398 kts | 201° |
| 2026-05-04 19:32 | 59.50821 | 24.49894 | 20519 ft | 401 kts | 201° |
| 2026-05-04 19:32 | 59.48112 | 24.48485 | 21024 ft | 404 kts | 200° |
| 2026-05-04 19:33 | 59.45373 | 24.47070 | 21509 ft | 407 kts | 200° |
| 2026-05-04 19:33 | 59.42618 | 24.45652 | 22009 ft | 410 kts | 200° |
| 2026-05-04 19:33 | 59.39845 | 24.44228 | 22486 ft | 413 kts | 200° |
| 2026-05-04 19:33 | 59.37050 | 24.42795 | 22981 ft | 416 kts | 200° |
| 2026-05-04 19:34 | 59.34274 | 24.41375 | 23411 ft | 419 kts | 200° |
| 2026-05-04 19:34 | 59.31415 | 24.40039 | 23801 ft | 425 kts | 198° |
| 2026-05-04 19:34 | 59.28498 | 24.38946 | 24182 ft | 430 kts | 196° |
| 2026-05-04 19:34 | 59.25531 | 24.37961 | 24573 ft | 433 kts | 195° |
| 2026-05-04 19:35 | 59.22541 | 24.36996 | 24952 ft | 436 kts | 195° |
| 2026-05-04 19:35 | 59.19536 | 24.36008 | 25327 ft | 439 kts | 196° |
| 2026-05-04 19:35 | 59.16512 | 24.34984 | 25697 ft | 442 kts | 196° |
| 2026-05-04 19:35 | 59.13462 | 24.33926 | 26065 ft | 445 kts | 196° |
| 2026-05-04 19:36 | 59.10407 | 24.32849 | 26429 ft | 448 kts | 196° |
| 2026-05-04 19:36 | 59.07362 | 24.31766 | 26752 ft | 451 kts | 196° |
| 2026-05-04 19:36 | 59.04266 | 24.30665 | 27137 ft | 453 kts | 196° |
| 2026-05-04 19:36 | 59.01151 | 24.29558 | 27442 ft | 457 kts | 196° |
| 2026-05-04 19:37 | 58.98008 | 24.28443 | 27748 ft | 461 kts | 196° |
| 2026-05-04 19:37 | 58.94840 | 24.27323 | 28092 ft | 463 kts | 196° |
| 2026-05-04 19:37 | 58.91656 | 24.26202 | 28430 ft | 466 kts | 196° |
| 2026-05-04 19:37 | 58.88458 | 24.25078 | 28749 ft | 469 kts | 196° |
| 2026-05-04 19:38 | 58.85235 | 24.23949 | 29061 ft | 471 kts | 196° |
| 2026-05-04 19:38 | 58.81998 | 24.22816 | 29348 ft | 474 kts | 196° |
| 2026-05-04 19:38 | 58.78742 | 24.21679 | 29650 ft | 476 kts | 196° |
| 2026-05-04 19:38 | 58.75480 | 24.20543 | 30008 ft | 476 kts | 196° |
| 2026-05-04 19:39 | 58.72222 | 24.19413 | 30332 ft | 475 kts | 196° |
| 2026-05-04 19:39 | 58.68970 | 24.18287 | 30702 ft | 474 kts | 196° |
| 2026-05-04 19:39 | 58.65723 | 24.17164 | 31060 ft | 473 kts | 196° |
| 2026-05-04 19:39 | 58.62492 | 24.16047 | 31395 ft | 472 kts | 196° |
| 2026-05-04 19:40 | 58.59255 | 24.14930 | 31721 ft | 472 kts | 196° |
| 2026-05-04 19:40 | 58.57119 | 24.14193 | 31931 ft | 471 kts | 196° |
| 2026-05-04 19:40 | 58.53891 | 24.13080 | 32251 ft | 471 kts | 196° |
| 2026-05-04 19:40 | 58.50668 | 24.11972 | 32551 ft | 470 kts | 196° |
| 2026-05-04 19:41 | 58.47454 | 24.10869 | 32852 ft | 469 kts | 196° |
| 2026-05-04 19:41 | 58.43185 | 24.09407 | 33185 ft | 469 kts | 196° |
| 2026-05-04 19:41 | 58.41012 | 24.08664 | 33377 ft | 469 kts | 196° |
| 2026-05-04 19:41 | 58.37807 | 24.07570 | 33650 ft | 468 kts | 196° |
| 2026-05-04 19:42 | 58.34639 | 24.06491 | 33909 ft | 468 kts | 196° |
| 2026-05-04 19:42 | 58.31435 | 24.05402 | 34107 ft | 468 kts | 196° |
| 2026-05-04 19:42 | 58.28231 | 24.04314 | 34282 ft | 468 kts | 196° |
| 2026-05-04 19:42 | 58.25021 | 24.03226 | 34481 ft | 468 kts | 196° |
| 2026-05-04 19:43 | 58.21813 | 24.02141 | 34671 ft | 468 kts | 196° |
| 2026-05-04 19:43 | 58.18605 | 24.01059 | 34829 ft | 468 kts | 196° |
| 2026-05-04 19:43 | 58.15394 | 23.99977 | 34998 ft | 468 kts | 196° |
| 2026-05-04 19:43 | 58.12183 | 23.98897 | 35169 ft | 468 kts | 196° |
| 2026-05-04 19:44 | 58.08972 | 23.97820 | 35339 ft | 468 kts | 196° |
| 2026-05-04 19:44 | 58.05767 | 23.96746 | 35498 ft | 468 kts | 196° |
| 2026-05-04 19:44 | 58.02560 | 23.95674 | 35636 ft | 467 kts | 195° |
| 2026-05-04 19:44 | 57.99357 | 23.94606 | 35798 ft | 468 kts | 195° |
| 2026-05-04 19:45 | 57.96148 | 23.93534 | 35815 ft | 471 kts | 195° |
| 2026-05-04 19:45 | 57.89667 | 23.91377 | 35794 ft | 473 kts | 195° |
| 2026-05-04 19:46 | 57.83223 | 23.89247 | 35816 ft | 473 kts | 195° |
| 2026-05-04 19:46 | 57.76732 | 23.87109 | 35815 ft | 473 kts | 195° |
| 2026-05-04 19:47 | 57.70239 | 23.84977 | 35815 ft | 473 kts | 195° |
| 2026-05-04 19:47 | 57.63745 | 23.82852 | 35818 ft | 473 kts | 195° |
| 2026-05-04 19:48 | 57.57257 | 23.80736 | 35812 ft | 473 kts | 195° |
| 2026-05-04 19:48 | 57.50769 | 23.78628 | 35817 ft | 473 kts | 195° |
| 2026-05-04 19:49 | 57.44329 | 23.76543 | 35815 ft | 473 kts | 195° |
| 2026-05-04 19:49 | 57.37847 | 23.74451 | 35813 ft | 473 kts | 195° |
| 2026-05-04 19:50 | 57.31362 | 23.72367 | 35819 ft | 473 kts | 195° |
| 2026-05-04 19:50 | 57.24880 | 23.70291 | 35821 ft | 472 kts | 195° |
| 2026-05-04 19:51 | 57.18399 | 23.68222 | 35821 ft | 472 kts | 195° |
| 2026-05-04 19:51 | 57.11918 | 23.66161 | 35824 ft | 472 kts | 195° |
| 2026-05-04 19:52 | 57.05436 | 23.64107 | 35809 ft | 472 kts | 195° |
| 2026-05-04 19:52 | 56.99001 | 23.62075 | 35834 ft | 471 kts | 195° |
| 2026-05-04 19:53 | 56.92540 | 23.60042 | 35831 ft | 471 kts | 195° |
| 2026-05-04 19:53 | 56.86072 | 23.58013 | 35835 ft | 471 kts | 195° |
| 2026-05-04 19:54 | 56.79600 | 23.55990 | 35829 ft | 471 kts | 195° |
| 2026-05-04 19:54 | 56.73136 | 23.53978 | 35838 ft | 470 kts | 195° |
| 2026-05-04 19:55 | 56.66730 | 23.51991 | 35840 ft | 470 kts | 195° |
| 2026-05-04 19:55 | 56.60280 | 23.49996 | 35843 ft | 470 kts | 195° |
| 2026-05-04 19:56 | 56.53835 | 23.48009 | 35849 ft | 470 kts | 195° |
| 2026-05-04 19:56 | 56.47385 | 23.46028 | 35847 ft | 470 kts | 195° |
| 2026-05-04 19:57 | 56.40933 | 23.44054 | 35852 ft | 470 kts | 195° |
| 2026-05-04 19:57 | 56.34472 | 23.42107 | 35858 ft | 471 kts | 194° |
| 2026-05-04 19:58 | 56.27930 | 23.40785 | 35860 ft | 474 kts | 191° |
| 2026-05-04 19:58 | 56.21356 | 23.39731 | 35863 ft | 474 kts | 191° |
| 2026-05-04 19:59 | 56.14841 | 23.38616 | 35872 ft | 473 kts | 192° |
| 2026-05-04 19:59 | 56.08287 | 23.37418 | 35873 ft | 475 kts | 192° |
| 2026-05-04 20:00 | 56.01680 | 23.36182 | 35882 ft | 480 kts | 192° |
| 2026-05-04 20:00 | 55.94995 | 23.34940 | 35870 ft | 484 kts | 192° |
| 2026-05-04 20:01 | 55.88290 | 23.33709 | 35885 ft | 485 kts | 192° |
| 2026-05-04 20:01 | 55.81564 | 23.32480 | 35884 ft | 486 kts | 192° |
| 2026-05-04 20:02 | 55.74826 | 23.31251 | 35885 ft | 486 kts | 192° |
| 2026-05-04 20:02 | 55.68092 | 23.30028 | 35868 ft | 486 kts | 192° |
| 2026-05-04 20:03 | 55.61372 | 23.28810 | 35889 ft | 485 kts | 192° |
| 2026-05-04 20:03 | 55.54661 | 23.27596 | 35894 ft | 484 kts | 192° |
| 2026-05-04 20:04 | 55.47956 | 23.26388 | 35902 ft | 484 kts | 192° |
| 2026-05-04 20:04 | 55.41302 | 23.25193 | 35878 ft | 484 kts | 192° |
| 2026-05-04 20:05 | 55.34588 | 23.23992 | 35910 ft | 484 kts | 192° |
| 2026-05-04 20:05 | 55.27890 | 23.22798 | 35909 ft | 484 kts | 192° |
| 2026-05-04 20:06 | 55.21191 | 23.21608 | 35910 ft | 483 kts | 192° |
| 2026-05-04 20:06 | 55.14509 | 23.20425 | 35884 ft | 482 kts | 192° |
| 2026-05-04 20:07 | 55.07870 | 23.19252 | 35909 ft | 482 kts | 191° |
| 2026-05-04 20:07 | 55.01190 | 23.18077 | 35932 ft | 482 kts | 191° |
| 2026-05-04 20:08 | 54.94508 | 23.16905 | 35928 ft | 482 kts | 191° |
| 2026-05-04 20:08 | 54.87815 | 23.15736 | 35897 ft | 482 kts | 191° |
| 2026-05-04 20:09 | 54.81131 | 23.14571 | 35927 ft | 483 kts | 191° |
| 2026-05-04 20:09 | 54.74432 | 23.13408 | 35927 ft | 484 kts | 191° |
| 2026-05-04 20:10 | 54.67760 | 23.12254 | 35936 ft | 484 kts | 191° |
| 2026-05-04 20:10 | 54.61051 | 23.11098 | 35917 ft | 484 kts | 191° |
| 2026-05-04 20:11 | 54.54338 | 23.09943 | 35936 ft | 485 kts | 191° |
| 2026-05-04 20:11 | 54.47605 | 23.08789 | 35941 ft | 486 kts | 191° |
| 2026-05-04 20:12 | 54.40904 | 23.07645 | 35938 ft | 487 kts | 191° |
| 2026-05-04 20:12 | 54.34150 | 23.06495 | 35911 ft | 488 kts | 191° |
| 2026-05-04 20:13 | 54.27397 | 23.05221 | 35943 ft | 487 kts | 194° |
| 2026-05-04 20:13 | 54.20754 | 23.03067 | 35941 ft | 485 kts | 197° |
| 2026-05-04 20:14 | 54.14132 | 23.00730 | 35940 ft | 485 kts | 196° |
| 2026-05-04 20:14 | 54.07536 | 22.98536 | 35910 ft | 486 kts | 195° |
| 2026-05-04 20:15 | 54.00874 | 22.96417 | 35937 ft | 487 kts | 195° |
| 2026-05-04 20:15 | 53.94193 | 22.94323 | 35936 ft | 488 kts | 195° |
| 2026-05-04 20:16 | 53.87518 | 22.92236 | 35938 ft | 488 kts | 195° |
| 2026-05-04 20:16 | 53.80833 | 22.90149 | 35939 ft | 488 kts | 195° |
| 2026-05-04 20:17 | 53.74196 | 22.88080 | 35936 ft | 488 kts | 195° |
| 2026-05-04 20:17 | 53.67513 | 22.86004 | 35930 ft | 488 kts | 195° |
| 2026-05-04 20:18 | 53.60827 | 22.83933 | 35929 ft | 488 kts | 195° |
| 2026-05-04 20:18 | 53.54151 | 22.81873 | 35924 ft | 488 kts | 195° |
| 2026-05-04 20:19 | 53.47497 | 22.79824 | 35920 ft | 489 kts | 194° |
| 2026-05-04 20:19 | 53.40781 | 22.77763 | 35927 ft | 491 kts | 194° |
| 2026-05-04 20:20 | 53.34045 | 22.75705 | 35927 ft | 492 kts | 194° |
| 2026-05-04 20:20 | 53.27311 | 22.73653 | 35923 ft | 492 kts | 194° |
| 2026-05-04 20:21 | 53.20570 | 22.71606 | 35919 ft | 493 kts | 194° |
| 2026-05-04 20:21 | 53.10491 | 22.68557 | 35923 ft | 493 kts | 194° |
| 2026-05-04 20:22 | 53.03732 | 22.66521 | 35921 ft | 493 kts | 194° |
| 2026-05-04 20:22 | 52.96974 | 22.64491 | 35922 ft | 494 kts | 194° |
| 2026-05-04 20:23 | 52.90206 | 22.62464 | 35920 ft | 494 kts | 194° |
| 2026-05-04 20:23 | 52.83437 | 22.60444 | 35919 ft | 494 kts | 194° |
| 2026-05-04 20:24 | 52.76676 | 22.58433 | 35922 ft | 494 kts | 193° |
| 2026-05-04 20:24 | 52.69899 | 22.56422 | 35922 ft | 495 kts | 193° |
| 2026-05-04 20:25 | 52.63126 | 22.54420 | 35925 ft | 495 kts | 193° |
| 2026-05-04 20:25 | 52.56321 | 22.52598 | 35921 ft | 496 kts | 191° |
| 2026-05-04 20:26 | 52.49512 | 22.51250 | 35927 ft | 496 kts | 189° |
| 2026-05-04 20:26 | 52.42654 | 22.49929 | 35930 ft | 496 kts | 189° |
| 2026-05-04 20:27 | 52.35803 | 22.48541 | 35935 ft | 496 kts | 190° |
| 2026-05-04 20:27 | 52.28957 | 22.47117 | 35932 ft | 496 kts | 189° |
| 2026-05-04 20:28 | 52.23255 | 22.45928 | 35936 ft | 497 kts | 189° |
| 2026-05-04 20:28 | 52.15278 | 22.44273 | 35938 ft | 497 kts | 189° |
| 2026-05-04 20:29 | 52.09524 | 22.43085 | 35941 ft | 497 kts | 189° |
| 2026-05-04 20:29 | 52.02702 | 22.41681 | 35941 ft | 497 kts | 189° |
| 2026-05-04 20:30 | 51.95839 | 22.40274 | 35944 ft | 497 kts | 189° |
| 2026-05-04 20:30 | 51.88969 | 22.38869 | 35944 ft | 497 kts | 189° |
| 2026-05-04 20:31 | 51.82094 | 22.37467 | 35941 ft | 497 kts | 189° |
| 2026-05-04 20:31 | 51.75223 | 22.36071 | 35947 ft | 498 kts | 189° |
| 2026-05-04 20:32 | 51.68345 | 22.34677 | 35948 ft | 498 kts | 189° |
| 2026-05-04 20:32 | 51.61468 | 22.33288 | 35949 ft | 497 kts | 189° |
| 2026-05-04 20:33 | 51.54588 | 22.31903 | 35948 ft | 498 kts | 189° |
| 2026-05-04 20:33 | 51.47750 | 22.30529 | 35948 ft | 498 kts | 189° |
| 2026-05-04 20:34 | 51.40858 | 22.29150 | 35969 ft | 498 kts | 189° |
| 2026-05-04 20:34 | 51.33982 | 22.27777 | 35951 ft | 498 kts | 189° |
| 2026-05-04 20:35 | 51.27099 | 22.26408 | 35962 ft | 498 kts | 189° |
| 2026-05-04 20:35 | 51.20211 | 22.25042 | 35958 ft | 498 kts | 189° |
| 2026-05-04 20:36 | 51.13326 | 22.23680 | 35970 ft | 498 kts | 189° |
| 2026-05-04 20:36 | 51.06457 | 22.22326 | 35959 ft | 496 kts | 189° |
| 2026-05-04 20:37 | 50.99606 | 22.20979 | 35969 ft | 496 kts | 189° |
| 2026-05-04 20:37 | 50.92806 | 22.19647 | 35964 ft | 495 kts | 189° |
| 2026-05-04 20:38 | 50.85966 | 22.18309 | 35968 ft | 496 kts | 189° |
| 2026-05-04 20:38 | 50.79114 | 22.16973 | 35968 ft | 496 kts | 189° |
| 2026-05-04 20:39 | 50.72246 | 22.15639 | 35962 ft | 497 kts | 188° |
| 2026-05-04 20:39 | 50.65387 | 22.14311 | 35970 ft | 497 kts | 188° |
| 2026-05-04 20:40 | 50.58515 | 22.12984 | 35973 ft | 497 kts | 188° |
| 2026-05-04 20:40 | 50.51644 | 22.11660 | 35969 ft | 497 kts | 188° |
| 2026-05-04 20:41 | 50.44808 | 22.10348 | 35974 ft | 497 kts | 188° |
| 2026-05-04 20:41 | 50.37933 | 22.09032 | 35972 ft | 497 kts | 188° |
| 2026-05-04 20:42 | 50.31051 | 22.07718 | 35985 ft | 498 kts | 188° |
| 2026-05-04 20:42 | 50.24169 | 22.06408 | 35992 ft | 498 kts | 188° |
| 2026-05-04 20:43 | 50.17274 | 22.05100 | 35993 ft | 498 kts | 188° |
| 2026-05-04 20:43 | 50.10389 | 22.03797 | 35992 ft | 499 kts | 188° |
| 2026-05-04 20:44 | 50.03518 | 22.02500 | 35993 ft | 500 kts | 188° |
| 2026-05-04 20:44 | 49.96598 | 22.01198 | 35992 ft | 500 kts | 188° |
| 2026-05-04 20:45 | 49.89672 | 21.99899 | 35988 ft | 501 kts | 188° |
| 2026-05-04 20:45 | 49.82728 | 21.98599 | 35997 ft | 504 kts | 188° |
| 2026-05-04 20:46 | 49.75758 | 21.97299 | 36002 ft | 505 kts | 188° |
| 2026-05-04 20:46 | 49.68777 | 21.96001 | 36007 ft | 505 kts | 188° |
| 2026-05-04 20:47 | 49.61795 | 21.94707 | 36015 ft | 506 kts | 188° |
| 2026-05-04 20:47 | 49.54792 | 21.93412 | 36017 ft | 507 kts | 188° |
| 2026-05-04 20:48 | 49.47827 | 21.92127 | 36025 ft | 507 kts | 188° |
| 2026-05-04 20:48 | 49.40814 | 21.90838 | 36028 ft | 507 kts | 188° |
| 2026-05-04 20:49 | 49.33816 | 21.89555 | 36038 ft | 507 kts | 187° |
| 2026-05-04 20:49 | 49.26789 | 21.88271 | 36035 ft | 508 kts | 187° |
| 2026-05-04 20:50 | 49.19764 | 21.86990 | 36040 ft | 509 kts | 187° |
| 2026-05-04 20:50 | 49.12730 | 21.85712 | 36039 ft | 509 kts | 187° |
| 2026-05-04 20:51 | 49.05686 | 21.84436 | 36045 ft | 509 kts | 187° |
| 2026-05-04 20:51 | 48.98698 | 21.83173 | 36045 ft | 509 kts | 187° |
| 2026-05-04 20:52 | 48.91651 | 21.81967 | 36043 ft | 509 kts | 184° |
| 2026-05-04 20:52 | 48.88108 | 21.81992 | 36195 ft | 507 kts | 175° |
| 2026-05-04 20:52 | 48.84604 | 21.82516 | 36459 ft | 504 kts | 174° |
| 2026-05-04 20:53 | 48.81137 | 21.83171 | 36724 ft | 500 kts | 173° |
| 2026-05-04 20:53 | 48.77689 | 21.83895 | 36960 ft | 498 kts | 172° |
| 2026-05-04 20:53 | 48.70858 | 21.85391 | 37049 ft | 501 kts | 172° |
| 2026-05-04 20:54 | 48.63910 | 21.86896 | 37046 ft | 505 kts | 172° |
| 2026-05-04 20:54 | 48.56931 | 21.88376 | 37045 ft | 507 kts | 173° |
| 2026-05-04 20:55 | 48.49924 | 21.89846 | 37047 ft | 508 kts | 173° |
| 2026-05-04 20:55 | 48.42948 | 21.91351 | 37045 ft | 509 kts | 169° |
| 2026-05-04 20:56 | 48.36250 | 21.94751 | 37048 ft | 509 kts | 152° |
| 2026-05-04 20:56 | 48.33274 | 21.97624 | 37048 ft | 509 kts | 141° |
| 2026-05-04 20:56 | 48.30626 | 22.01151 | 37052 ft | 510 kts | 135° |
| 2026-05-04 20:57 | 48.25637 | 22.08738 | 37047 ft | 511 kts | 133° |
| 2026-05-04 20:57 | 48.20735 | 22.16460 | 37053 ft | 511 kts | 133° |
| 2026-05-04 20:58 | 48.15793 | 22.24152 | 37056 ft | 512 kts | 133° |
| 2026-05-04 20:58 | 48.10850 | 22.31746 | 37057 ft | 512 kts | 133° |
| 2026-05-04 20:59 | 48.05859 | 22.39364 | 37058 ft | 513 kts | 133° |
| 2026-05-04 20:59 | 48.00855 | 22.46981 | 37058 ft | 513 kts | 133° |
| 2026-05-04 21:00 | 47.95840 | 22.54593 | 37064 ft | 514 kts | 133° |
| 2026-05-04 21:00 | 47.90825 | 22.62185 | 37065 ft | 514 kts | 133° |
| 2026-05-04 21:01 | 47.85807 | 22.69760 | 37065 ft | 514 kts | 133° |
| 2026-05-04 21:01 | 47.80811 | 22.77281 | 37073 ft | 513 kts | 133° |
| 2026-05-04 21:02 | 47.75783 | 22.84827 | 37075 ft | 513 kts | 133° |
| 2026-05-04 21:02 | 47.70770 | 22.92388 | 37075 ft | 513 kts | 131° |
| 2026-05-04 21:03 | 47.65974 | 23.00231 | 37075 ft | 512 kts | 130° |
| 2026-05-04 21:03 | 47.61274 | 23.08078 | 37077 ft | 512 kts | 130° |
| 2026-05-04 21:04 | 47.56515 | 23.15915 | 37077 ft | 512 kts | 130° |
| 2026-05-04 21:04 | 47.51717 | 23.23725 | 37079 ft | 512 kts | 131° |
| 2026-05-04 21:05 | 47.46918 | 23.31493 | 37085 ft | 512 kts | 131° |
| 2026-05-04 21:05 | 47.42107 | 23.39261 | 37085 ft | 512 kts | 131° |
| 2026-05-04 21:06 | 47.37297 | 23.47005 | 37085 ft | 512 kts | 131° |
| 2026-05-04 21:06 | 47.32512 | 23.54691 | 37090 ft | 512 kts | 131° |
| 2026-05-04 21:07 | 47.27686 | 23.62419 | 37088 ft | 512 kts | 131° |
| 2026-05-04 21:07 | 47.22856 | 23.70130 | 37090 ft | 512 kts | 131° |
| 2026-05-04 21:08 | 47.18018 | 23.77834 | 37095 ft | 513 kts | 131° |
| 2026-05-04 21:08 | 47.13175 | 23.85521 | 37088 ft | 513 kts | 131° |
| 2026-05-04 21:09 | 47.08351 | 23.93158 | 37092 ft | 513 kts | 131° |
| 2026-05-04 21:09 | 47.03484 | 24.00839 | 37088 ft | 513 kts | 131° |
| 2026-05-04 21:10 | 46.98623 | 24.08490 | 37090 ft | 513 kts | 131° |
| 2026-05-04 21:10 | 46.93749 | 24.16138 | 37086 ft | 514 kts | 131° |
| 2026-05-04 21:11 | 46.88867 | 24.23778 | 37078 ft | 514 kts | 131° |
| 2026-05-04 21:11 | 46.83981 | 24.31403 | 37076 ft | 514 kts | 131° |
| 2026-05-04 21:12 | 46.79090 | 24.39012 | 37069 ft | 514 kts | 131° |
| 2026-05-04 21:12 | 46.74220 | 24.46570 | 37083 ft | 514 kts | 131° |
| 2026-05-04 21:13 | 46.69318 | 24.54153 | 37083 ft | 514 kts | 131° |
| 2026-05-04 21:13 | 46.64410 | 24.61724 | 37085 ft | 514 kts | 131° |
| 2026-05-04 21:14 | 46.59497 | 24.69283 | 37082 ft | 514 kts | 132° |
| 2026-05-04 21:14 | 46.54575 | 24.76833 | 37079 ft | 514 kts | 131° |
| 2026-05-04 21:15 | 46.49674 | 24.84329 | 37062 ft | 514 kts | 132° |
| 2026-05-04 21:15 | 46.44744 | 24.91851 | 37092 ft | 514 kts | 132° |
| 2026-05-04 21:16 | 46.39809 | 24.99358 | 37089 ft | 514 kts | 132° |
| 2026-05-04 21:16 | 46.34871 | 25.06849 | 37075 ft | 514 kts | 132° |
| 2026-05-04 21:17 | 46.29932 | 25.14320 | 37079 ft | 514 kts | 132° |
| 2026-05-04 21:17 | 46.25819 | 25.20527 | 37087 ft | 513 kts | 132° |
| 2026-05-04 21:18 | 46.20873 | 25.27970 | 37083 ft | 512 kts | 132° |
| 2026-05-04 21:18 | 46.15928 | 25.35391 | 37084 ft | 513 kts | 132° |
| 2026-05-04 21:19 | 46.10979 | 25.42799 | 37091 ft | 513 kts | 132° |
| 2026-05-04 21:19 | 46.06050 | 25.50156 | 37091 ft | 512 kts | 132° |
| 2026-05-04 21:20 | 46.01096 | 25.57529 | 37088 ft | 512 kts | 133° |
| 2026-05-04 21:20 | 45.96135 | 25.64892 | 37085 ft | 512 kts | 133° |
| 2026-05-04 21:21 | 45.91170 | 25.72243 | 37088 ft | 512 kts | 133° |
| 2026-05-04 21:21 | 45.86227 | 25.79540 | 37088 ft | 513 kts | 133° |
| 2026-05-04 21:22 | 45.81249 | 25.86869 | 37088 ft | 513 kts | 133° |
| 2026-05-04 21:22 | 45.76262 | 25.94192 | 37088 ft | 513 kts | 133° |
| 2026-05-04 21:23 | 45.71271 | 26.01499 | 37100 ft | 513 kts | 133° |
| 2026-05-04 21:23 | 45.66271 | 26.08801 | 37100 ft | 513 kts | 133° |
| 2026-05-04 21:24 | 45.61272 | 26.16080 | 37098 ft | 513 kts | 133° |
| 2026-05-04 21:24 | 45.56270 | 26.23346 | 37106 ft | 513 kts | 133° |
| 2026-05-04 21:25 | 45.51261 | 26.30602 | 37091 ft | 513 kts | 134° |
| 2026-05-04 21:25 | 45.46282 | 26.37796 | 37091 ft | 512 kts | 134° |
| 2026-05-04 21:26 | 45.41271 | 26.45015 | 37085 ft | 512 kts | 134° |
| 2026-05-04 21:26 | 45.36254 | 26.52223 | 37074 ft | 512 kts | 134° |
| 2026-05-04 21:27 | 45.31236 | 26.59415 | 37058 ft | 512 kts | 134° |
| 2026-05-04 21:27 | 45.26220 | 26.66583 | 37059 ft | 512 kts | 134° |
| 2026-05-04 21:28 | 45.21191 | 26.73752 | 37054 ft | 512 kts | 134° |
| 2026-05-04 21:28 | 45.16200 | 26.80848 | 37047 ft | 510 kts | 134° |
| 2026-05-04 21:29 | 45.11177 | 26.87969 | 37045 ft | 510 kts | 134° |
| 2026-05-04 21:29 | 45.06159 | 26.95066 | 37043 ft | 510 kts | 134° |
| 2026-05-04 21:30 | 45.01136 | 27.02150 | 37046 ft | 510 kts | 134° |
| 2026-05-04 21:30 | 44.96115 | 27.09214 | 37043 ft | 509 kts | 134° |
| 2026-05-04 21:31 | 44.88580 | 27.19779 | 37045 ft | 508 kts | 134° |
| 2026-05-04 21:32 | 44.83589 | 27.26755 | 37048 ft | 509 kts | 134° |
| 2026-05-04 21:32 | 44.78553 | 27.33774 | 37050 ft | 509 kts | 134° |
| 2026-05-04 21:33 | 44.73516 | 27.40777 | 37049 ft | 509 kts | 134° |
| 2026-05-04 21:33 | 44.68467 | 27.47780 | 37054 ft | 509 kts | 134° |
| 2026-05-04 21:34 | 44.63430 | 27.54745 | 37049 ft | 507 kts | 134° |
| 2026-05-04 21:34 | 44.58398 | 27.61688 | 37053 ft | 506 kts | 134° |
| 2026-05-04 21:35 | 44.53402 | 27.68564 | 37053 ft | 506 kts | 134° |
| 2026-05-04 21:35 | 44.48363 | 27.75480 | 37057 ft | 507 kts | 134° |
| 2026-05-04 21:36 | 44.43313 | 27.82394 | 37058 ft | 506 kts | 134° |
| 2026-05-04 21:36 | 44.38309 | 27.89228 | 37058 ft | 506 kts | 134° |
| 2026-05-04 21:37 | 44.33267 | 27.96095 | 37061 ft | 506 kts | 134° |
| 2026-05-04 21:37 | 44.28210 | 28.02966 | 37064 ft | 507 kts | 134° |
| 2026-05-04 21:38 | 44.23155 | 28.09818 | 37061 ft | 507 kts | 134° |
| 2026-05-04 21:38 | 44.18090 | 28.16665 | 37065 ft | 507 kts | 134° |
| 2026-05-04 21:39 | 44.13014 | 28.23510 | 37065 ft | 508 kts | 134° |
| 2026-05-04 21:39 | 44.07918 | 28.30364 | 37064 ft | 509 kts | 134° |
| 2026-05-04 21:40 | 44.02823 | 28.37201 | 37064 ft | 509 kts | 134° |
| 2026-05-04 21:40 | 43.97745 | 28.43996 | 37070 ft | 509 kts | 134° |
| 2026-05-04 21:41 | 43.92643 | 28.50807 | 37061 ft | 510 kts | 134° |
| 2026-05-04 21:41 | 43.87529 | 28.57617 | 37055 ft | 510 kts | 134° |
| 2026-05-04 21:42 | 43.82406 | 28.64421 | 37053 ft | 510 kts | 134° |
| 2026-05-04 21:42 | 43.77275 | 28.71219 | 37054 ft | 510 kts | 134° |
| 2026-05-04 21:43 | 43.72137 | 28.78013 | 37048 ft | 510 kts | 134° |
| 2026-05-04 21:43 | 43.67606 | 28.85423 | 37047 ft | 507 kts | 124° |
| 2026-05-04 21:44 | 43.63428 | 28.93286 | 37054 ft | 506 kts | 123° |
| 2026-05-04 21:44 | 43.59321 | 29.01179 | 37045 ft | 506 kts | 123° |
| 2026-05-04 21:45 | 43.55205 | 29.09055 | 37045 ft | 506 kts | 123° |
| 2026-05-04 21:45 | 43.51070 | 29.16913 | 37056 ft | 506 kts | 123° |
| 2026-05-04 21:46 | 43.46925 | 29.24752 | 37039 ft | 507 kts | 123° |
| 2026-05-04 21:46 | 43.42770 | 29.32590 | 37037 ft | 507 kts | 123° |
| 2026-05-04 21:47 | 43.38626 | 29.40387 | 37039 ft | 507 kts | 123° |
| 2026-05-04 21:47 | 43.34456 | 29.48212 | 37030 ft | 507 kts | 123° |
| 2026-05-04 21:48 | 43.30284 | 29.56020 | 37030 ft | 507 kts | 123° |
| 2026-05-04 21:48 | 43.26104 | 29.63825 | 37022 ft | 507 kts | 123° |
| 2026-05-04 21:49 | 43.21918 | 29.71617 | 37022 ft | 507 kts | 123° |
| 2026-05-04 21:49 | 43.17727 | 29.79401 | 37016 ft | 507 kts | 123° |
| 2026-05-04 21:50 | 43.13558 | 29.87122 | 37017 ft | 507 kts | 123° |
| 2026-05-04 21:50 | 43.09350 | 29.94895 | 37010 ft | 507 kts | 123° |
| 2026-05-04 21:51 | 43.05141 | 30.02650 | 37013 ft | 507 kts | 123° |
| 2026-05-04 21:51 | 43.00927 | 30.10394 | 37007 ft | 508 kts | 123° |
| 2026-05-04 21:52 | 42.96704 | 30.18134 | 36999 ft | 508 kts | 123° |
| 2026-05-04 21:52 | 42.92503 | 30.25814 | 36997 ft | 508 kts | 123° |
| 2026-05-04 21:53 | 42.88268 | 30.33535 | 36995 ft | 507 kts | 123° |
| 2026-05-04 21:53 | 42.84036 | 30.41232 | 36993 ft | 508 kts | 123° |
| 2026-05-04 21:54 | 42.79797 | 30.48921 | 36988 ft | 507 kts | 123° |
| 2026-05-04 21:54 | 42.75767 | 30.56755 | 36985 ft | 501 kts | 115° |
| 2026-05-04 21:55 | 42.73372 | 30.65495 | 36987 ft | 489 kts | 96° |
| 2026-05-04 21:55 | 42.72275 | 30.74607 | 37000 ft | 488 kts | 94° |
| 2026-05-04 21:56 | 42.71389 | 30.83746 | 36973 ft | 487 kts | 93° |
| 2026-05-04 21:56 | 42.70505 | 30.92823 | 36968 ft | 487 kts | 94° |
| 2026-05-04 21:57 | 42.69578 | 31.01940 | 36960 ft | 487 kts | 94° |
| 2026-05-04 21:57 | 42.68624 | 31.11087 | 36974 ft | 487 kts | 94° |
| 2026-05-04 21:58 | 42.67669 | 31.20153 | 36957 ft | 488 kts | 94° |
| 2026-05-04 21:58 | 42.66699 | 31.29290 | 36954 ft | 488 kts | 94° |
| 2026-05-04 21:59 | 42.65725 | 31.38407 | 36958 ft | 488 kts | 94° |
| 2026-05-04 21:59 | 42.64744 | 31.47518 | 36957 ft | 487 kts | 95° |
| 2026-05-04 22:00 | 42.63757 | 31.56619 | 36941 ft | 487 kts | 95° |
| 2026-05-04 22:00 | 42.62763 | 31.65714 | 36946 ft | 487 kts | 95° |
| 2026-05-04 22:01 | 42.61762 | 31.74806 | 36938 ft | 487 kts | 95° |
| 2026-05-04 22:01 | 42.60753 | 31.83899 | 36953 ft | 487 kts | 95° |
| 2026-05-04 22:02 | 42.59739 | 31.92984 | 36935 ft | 486 kts | 95° |
| 2026-05-04 22:02 | 42.58724 | 32.02004 | 36933 ft | 486 kts | 95° |
| 2026-05-04 22:03 | 42.57720 | 32.11092 | 36930 ft | 486 kts | 95° |
| 2026-05-04 22:03 | 42.56683 | 32.20171 | 36946 ft | 487 kts | 95° |
| 2026-05-04 22:04 | 42.55632 | 32.29242 | 36930 ft | 487 kts | 96° |
| 2026-05-04 22:04 | 42.54583 | 32.38262 | 36930 ft | 487 kts | 96° |
| 2026-05-04 22:05 | 42.53517 | 32.47391 | 36926 ft | 486 kts | 96° |
| 2026-05-04 22:05 | 42.52454 | 32.56435 | 36938 ft | 486 kts | 96° |
| 2026-05-04 22:06 | 42.51565 | 32.63959 | 36928 ft | 487 kts | 96° |
| 2026-05-04 22:06 | 42.50308 | 32.74513 | 36933 ft | 488 kts | 96° |
| 2026-05-04 22:07 | 42.49394 | 32.82125 | 36930 ft | 488 kts | 96° |
| 2026-05-04 22:07 | 42.48305 | 32.91149 | 36930 ft | 488 kts | 96° |
| 2026-05-04 22:08 | 42.47202 | 33.00228 | 36933 ft | 488 kts | 96° |
| 2026-05-04 22:08 | 42.46091 | 33.09307 | 36933 ft | 488 kts | 96° |
| 2026-05-04 22:09 | 42.44976 | 33.18372 | 36930 ft | 488 kts | 96° |
| 2026-05-04 22:09 | 42.43850 | 33.27438 | 36951 ft | 488 kts | 97° |
| 2026-05-04 22:10 | 42.42712 | 33.36526 | 36936 ft | 489 kts | 97° |
| 2026-05-04 22:10 | 42.41580 | 33.45537 | 36934 ft | 488 kts | 97° |
| 2026-05-04 22:11 | 42.40435 | 33.54582 | 36933 ft | 487 kts | 97° |
| 2026-05-04 22:11 | 42.39283 | 33.63604 | 36953 ft | 486 kts | 97° |
| 2026-05-04 22:12 | 42.38124 | 33.72638 | 36936 ft | 488 kts | 97° |
| 2026-05-04 22:12 | 42.36956 | 33.81688 | 36936 ft | 488 kts | 97° |
| 2026-05-04 22:13 | 42.35789 | 33.90677 | 36938 ft | 488 kts | 97° |
| 2026-05-04 22:13 | 42.34611 | 33.99721 | 36949 ft | 488 kts | 98° |
| 2026-05-04 22:14 | 42.33424 | 34.08781 | 36940 ft | 491 kts | 98° |
| 2026-05-04 22:14 | 42.32223 | 34.17887 | 36938 ft | 492 kts | 98° |
| 2026-05-04 22:15 | 42.31015 | 34.26986 | 36942 ft | 492 kts | 98° |
| 2026-05-04 22:15 | 42.29799 | 34.36084 | 36943 ft | 492 kts | 98° |
| 2026-05-04 22:16 | 42.28585 | 34.45152 | 36942 ft | 494 kts | 98° |
| 2026-05-04 22:16 | 42.27344 | 34.54303 | 36939 ft | 495 kts | 99° |
| 2026-05-04 22:17 | 42.26096 | 34.63433 | 36940 ft | 494 kts | 99° |
| 2026-05-04 22:17 | 42.24849 | 34.72516 | 36946 ft | 495 kts | 99° |
| 2026-05-04 22:18 | 42.23586 | 34.81679 | 36942 ft | 497 kts | 99° |
| 2026-05-04 22:18 | 42.22314 | 34.90849 | 36937 ft | 497 kts | 100° |
| 2026-05-04 22:19 | 42.21025 | 35.00015 | 36941 ft | 497 kts | 100° |
| 2026-05-04 22:19 | 42.19730 | 35.09192 | 36942 ft | 497 kts | 100° |
| 2026-05-04 22:20 | 42.18430 | 35.18351 | 36945 ft | 497 kts | 101° |
| 2026-05-04 22:20 | 42.17125 | 35.27501 | 36942 ft | 497 kts | 101° |
| 2026-05-04 22:21 | 42.15813 | 35.36644 | 36940 ft | 497 kts | 101° |
| 2026-05-04 22:21 | 42.14496 | 35.45794 | 36940 ft | 497 kts | 101° |
| 2026-05-04 22:22 | 42.13172 | 35.54938 | 36941 ft | 497 kts | 101° |
| 2026-05-04 22:22 | 42.11848 | 35.64016 | 36939 ft | 497 kts | 101° |
| 2026-05-04 22:23 | 42.10510 | 35.73142 | 36942 ft | 497 kts | 101° |
| 2026-05-04 22:23 | 42.09163 | 35.82284 | 36941 ft | 498 kts | 101° |
| 2026-05-04 22:24 | 42.07804 | 35.91448 | 36937 ft | 499 kts | 101° |
| 2026-05-04 22:24 | 42.06439 | 36.00606 | 36937 ft | 499 kts | 101° |
| 2026-05-04 22:25 | 42.05067 | 36.09754 | 36937 ft | 499 kts | 102° |
| 2026-05-04 22:25 | 42.03692 | 36.18872 | 36936 ft | 500 kts | 102° |
| 2026-05-04 22:26 | 42.02299 | 36.28052 | 36937 ft | 501 kts | 102° |
| 2026-05-04 22:26 | 42.00898 | 36.37235 | 36935 ft | 501 kts | 102° |
| 2026-05-04 22:27 | 41.99488 | 36.46427 | 36934 ft | 501 kts | 102° |
| 2026-05-04 22:27 | 41.98073 | 36.55605 | 36932 ft | 501 kts | 102° |
| 2026-05-04 22:28 | 41.96660 | 36.64709 | 36932 ft | 500 kts | 102° |
| 2026-05-04 22:28 | 41.95231 | 36.73870 | 36931 ft | 500 kts | 102° |
| 2026-05-04 22:29 | 41.93796 | 36.83023 | 36928 ft | 501 kts | 103° |
| 2026-05-04 22:29 | 41.92352 | 36.92174 | 36929 ft | 501 kts | 103° |
| 2026-05-04 22:30 | 41.90892 | 37.01327 | 36927 ft | 501 kts | 104° |
| 2026-05-04 22:30 | 41.88632 | 37.10144 | 36931 ft | 500 kts | 112° |
| 2026-05-04 22:31 | 41.85970 | 37.18766 | 36927 ft | 500 kts | 114° |
| 2026-05-04 22:31 | 41.83251 | 37.27306 | 36926 ft | 501 kts | 114° |
| 2026-05-04 22:32 | 41.80513 | 37.35902 | 36922 ft | 501 kts | 114° |
| 2026-05-04 22:32 | 41.77781 | 37.44497 | 36920 ft | 501 kts | 114° |
| 2026-05-04 22:33 | 41.75044 | 37.53100 | 36923 ft | 502 kts | 114° |
| 2026-05-04 22:33 | 41.72300 | 37.61696 | 36922 ft | 502 kts | 114° |
| 2026-05-04 22:34 | 41.69550 | 37.70290 | 36921 ft | 502 kts | 114° |
| 2026-05-04 22:34 | 41.66789 | 37.78888 | 36917 ft | 502 kts | 114° |
| 2026-05-04 22:35 | 41.64043 | 37.87416 | 36918 ft | 502 kts | 115° |
| 2026-05-04 22:35 | 41.61273 | 37.95988 | 36915 ft | 502 kts | 115° |
| 2026-05-04 22:36 | 41.58496 | 38.04556 | 36909 ft | 503 kts | 115° |
| 2026-05-04 22:36 | 41.55704 | 38.13143 | 36906 ft | 503 kts | 115° |
| 2026-05-04 22:37 | 41.52912 | 38.21706 | 36908 ft | 503 kts | 115° |
| 2026-05-04 22:37 | 41.50110 | 38.30270 | 36912 ft | 503 kts | 115° |
| 2026-05-04 22:38 | 41.47298 | 38.38839 | 36906 ft | 505 kts | 115° |
| 2026-05-04 22:38 | 41.44494 | 38.47354 | 36906 ft | 504 kts | 115° |
| 2026-05-04 22:39 | 41.41672 | 38.55901 | 36909 ft | 503 kts | 115° |
| 2026-05-04 22:39 | 41.38839 | 38.64453 | 36908 ft | 504 kts | 115° |
| 2026-05-04 22:40 | 41.35999 | 38.72998 | 36911 ft | 504 kts | 116° |
| 2026-05-04 22:40 | 41.33159 | 38.81535 | 36908 ft | 505 kts | 115° |
| 2026-05-04 22:41 | 41.30370 | 38.90053 | 36910 ft | 505 kts | 115° |
| 2026-05-04 22:41 | 41.27570 | 38.98632 | 36911 ft | 505 kts | 115° |
| 2026-05-04 22:42 | 41.24757 | 39.07205 | 36911 ft | 505 kts | 115° |
| 2026-05-04 22:42 | 41.21933 | 39.15769 | 36901 ft | 506 kts | 116° |
| 2026-05-04 22:43 | 41.19071 | 39.24243 | 36900 ft | 506 kts | 117° |
| 2026-05-04 22:43 | 41.16087 | 39.32704 | 36900 ft | 506 kts | 117° |
| 2026-05-04 22:44 | 41.13099 | 39.41149 | 36900 ft | 506 kts | 117° |
| 2026-05-04 22:44 | 41.10116 | 39.49612 | 36904 ft | 506 kts | 117° |
| 2026-05-04 22:45 | 41.07136 | 39.58070 | 36907 ft | 506 kts | 117° |
| 2026-05-04 22:45 | 41.02661 | 39.70735 | 36910 ft | 507 kts | 117° |
| 2026-05-04 22:46 | 41.00114 | 39.79417 | 36912 ft | 513 kts | 106° |
| 2026-05-04 22:46 | 40.99259 | 39.88822 | 36910 ft | 517 kts | 95° |
| 2026-05-04 22:47 | 40.99001 | 39.98358 | 36909 ft | 518 kts | 94° |
| 2026-05-04 22:47 | 40.98821 | 40.07920 | 36906 ft | 519 kts | 94° |
| 2026-05-04 22:48 | 40.98608 | 40.17481 | 36905 ft | 520 kts | 94° |
| 2026-05-04 22:48 | 40.98367 | 40.26979 | 36903 ft | 520 kts | 95° |
| 2026-05-04 22:49 | 40.98100 | 40.36541 | 36906 ft | 520 kts | 95° |
| 2026-05-04 22:49 | 40.97824 | 40.46100 | 36903 ft | 520 kts | 95° |
| 2026-05-04 22:50 | 40.97542 | 40.55676 | 36908 ft | 521 kts | 95° |
| 2026-05-04 22:50 | 40.97253 | 40.65273 | 36910 ft | 522 kts | 95° |
| 2026-05-04 22:51 | 40.96957 | 40.74865 | 36909 ft | 522 kts | 95° |
| 2026-05-04 22:51 | 40.96653 | 40.84459 | 36912 ft | 522 kts | 95° |
| 2026-05-04 22:52 | 40.96344 | 40.94063 | 36913 ft | 523 kts | 95° |
| 2026-05-04 22:52 | 40.96024 | 41.03620 | 36916 ft | 523 kts | 95° |
| 2026-05-04 22:53 | 40.95692 | 41.13232 | 36921 ft | 524 kts | 95° |
| 2026-05-04 22:53 | 40.95352 | 41.22859 | 36912 ft | 524 kts | 96° |
| 2026-05-04 22:54 | 40.95006 | 41.32486 | 36907 ft | 523 kts | 96° |
| 2026-05-04 22:54 | 40.94652 | 41.42123 | 36915 ft | 524 kts | 96° |
| 2026-05-04 22:55 | 40.94352 | 41.50124 | 36906 ft | 524 kts | 96° |
| 2026-05-04 22:55 | 40.93921 | 41.61331 | 36907 ft | 524 kts | 96° |
| 2026-05-04 22:56 | 40.93543 | 41.70963 | 36916 ft | 525 kts | 96° |
| 2026-05-04 22:56 | 40.93220 | 41.79037 | 36914 ft | 525 kts | 96° |
| 2026-05-04 22:57 | 40.92829 | 41.88636 | 36909 ft | 525 kts | 96° |
| 2026-05-04 22:57 | 40.92425 | 41.98297 | 36918 ft | 526 kts | 96° |
| 2026-05-04 22:58 | 40.92016 | 42.07954 | 36921 ft | 526 kts | 96° |
| 2026-05-04 22:58 | 40.91599 | 42.17615 | 36929 ft | 526 kts | 97° |
| 2026-05-04 22:59 | 40.91171 | 42.27283 | 36934 ft | 526 kts | 97° |
| 2026-05-04 22:59 | 40.90739 | 42.36884 | 36932 ft | 527 kts | 97° |
| 2026-05-04 23:00 | 40.90295 | 42.46562 | 36935 ft | 527 kts | 97° |
| 2026-05-04 23:00 | 40.89842 | 42.56251 | 36936 ft | 528 kts | 98° |
| 2026-05-04 23:01 | 40.89380 | 42.65959 | 36940 ft | 529 kts | 98° |
| 2026-05-04 23:01 | 40.88911 | 42.75657 | 36933 ft | 529 kts | 98° |
| 2026-05-04 23:02 | 40.88434 | 42.85371 | 36936 ft | 529 kts | 98° |
| 2026-05-04 23:02 | 40.87949 | 42.95053 | 36926 ft | 528 kts | 98° |
| 2026-05-04 23:03 | 40.87459 | 43.04664 | 36932 ft | 528 kts | 98° |
| 2026-05-04 23:03 | 40.86959 | 43.14341 | 36921 ft | 528 kts | 98° |
| 2026-05-04 23:04 | 40.86450 | 43.24017 | 36925 ft | 528 kts | 98° |
| 2026-05-04 23:04 | 40.85934 | 43.33688 | 36932 ft | 528 kts | 98° |
| 2026-05-04 23:05 | 40.85409 | 43.43353 | 36934 ft | 527 kts | 98° |
| 2026-05-04 23:05 | 40.84879 | 43.52986 | 36937 ft | 524 kts | 98° |
| 2026-05-04 23:06 | 40.84340 | 43.62593 | 36938 ft | 524 kts | 98° |
| 2026-05-04 23:06 | 40.84069 | 43.67384 | 37043 ft | 523 kts | 98° |
| 2026-05-04 23:06 | 40.83814 | 43.72171 | 37134 ft | 523 kts | 97° |
| 2026-05-04 23:07 | 40.83494 | 43.81750 | 37195 ft | 527 kts | 96° |
| 2026-05-04 23:07 | 40.83235 | 43.91425 | 37356 ft | 527 kts | 96° |
| 2026-05-04 23:08 | 40.82936 | 44.01099 | 37487 ft | 527 kts | 97° |
| 2026-05-04 23:08 | 40.82603 | 44.10778 | 37590 ft | 527 kts | 97° |
| 2026-05-04 23:09 | 40.82257 | 44.20461 | 37728 ft | 527 kts | 97° |
| 2026-05-04 23:09 | 40.81903 | 44.30097 | 37745 ft | 529 kts | 97° |
| 2026-05-04 23:10 | 40.81544 | 44.39793 | 37888 ft | 528 kts | 97° |
| 2026-05-04 23:10 | 40.81363 | 44.44629 | 38028 ft | 527 kts | 97° |
| 2026-05-04 23:10 | 40.81183 | 44.49457 | 38110 ft | 527 kts | 98° |
| 2026-05-04 23:11 | 40.80804 | 44.59150 | 38105 ft | 530 kts | 98° |
| 2026-05-04 23:11 | 40.80415 | 44.68899 | 37950 ft | 534 kts | 98° |
| 2026-05-04 23:12 | 40.80016 | 44.78689 | 38010 ft | 534 kts | 98° |
| 2026-05-04 23:12 | 40.79612 | 44.88465 | 38096 ft | 533 kts | 98° |
| 2026-05-04 23:13 | 40.79200 | 44.98242 | 38185 ft | 533 kts | 98° |
| 2026-05-04 23:13 | 40.78993 | 45.03119 | 38309 ft | 531 kts | 98° |
| 2026-05-04 23:13 | 40.78785 | 45.07989 | 38247 ft | 533 kts | 98° |
| 2026-05-04 23:14 | 40.78356 | 45.17744 | 38167 ft | 536 kts | 98° |
| 2026-05-04 23:14 | 40.77915 | 45.27553 | 38309 ft | 534 kts | 98° |
| 2026-05-04 23:15 | 40.77467 | 45.37343 | 38406 ft | 534 kts | 98° |
| 2026-05-04 23:15 | 40.77011 | 45.47125 | 38426 ft | 534 kts | 99° |
| 2026-05-04 23:16 | 40.76446 | 45.56838 | 38440 ft | 534 kts | 102° |
| 2026-05-04 23:16 | 40.75522 | 45.66543 | 38546 ft | 532 kts | 103° |
| 2026-05-04 23:17 | 40.74556 | 45.76219 | 38639 ft | 531 kts | 103° |
| 2026-05-04 23:17 | 40.73636 | 45.85890 | 38703 ft | 531 kts | 103° |
| 2026-05-04 23:18 | 40.72740 | 45.95561 | 38753 ft | 531 kts | 103° |
| 2026-05-04 23:18 | 40.71844 | 46.05213 | 38832 ft | 530 kts | 103° |
| 2026-05-04 23:19 | 40.70939 | 46.14866 | 38853 ft | 530 kts | 103° |
| 2026-05-04 23:19 | 40.70023 | 46.24499 | 38859 ft | 530 kts | 103° |
| 2026-05-04 23:20 | 40.69103 | 46.34076 | 38856 ft | 530 kts | 103° |
| 2026-05-04 23:20 | 40.68171 | 46.43703 | 38856 ft | 530 kts | 103° |
| 2026-05-04 23:21 | 40.67230 | 46.53347 | 38853 ft | 530 kts | 104° |
| 2026-05-04 23:21 | 40.66282 | 46.62975 | 38852 ft | 531 kts | 104° |
| 2026-05-04 23:22 | 40.65322 | 46.72628 | 38850 ft | 532 kts | 104° |
| 2026-05-04 23:22 | 40.64350 | 46.82326 | 38852 ft | 534 kts | 104° |
| 2026-05-04 23:23 | 40.63377 | 46.91969 | 38851 ft | 534 kts | 104° |
| 2026-05-04 23:23 | 40.62390 | 47.01662 | 38851 ft | 534 kts | 104° |
| 2026-05-04 23:24 | 40.61390 | 47.11394 | 38851 ft | 534 kts | 104° |
| 2026-05-04 23:24 | 40.60628 | 47.21161 | 38859 ft | 540 kts | 99° |
| 2026-05-04 23:25 | 40.60293 | 47.30968 | 38863 ft | 540 kts | 98° |
| 2026-05-04 23:25 | 40.60021 | 47.40862 | 38865 ft | 540 kts | 98° |
| 2026-05-04 23:26 | 40.59744 | 47.50749 | 38859 ft | 540 kts | 98° |
| 2026-05-04 23:26 | 40.59450 | 47.60628 | 38863 ft | 540 kts | 98° |
| 2026-05-04 23:27 | 40.59144 | 47.70445 | 38859 ft | 540 kts | 98° |
| 2026-05-04 23:27 | 40.58827 | 47.80310 | 38858 ft | 539 kts | 98° |
| 2026-05-04 23:28 | 40.58502 | 47.90165 | 38856 ft | 539 kts | 98° |
| 2026-05-04 23:28 | 40.58260 | 48.00037 | 38858 ft | 543 kts | 95° |
| 2026-05-04 23:29 | 40.58567 | 48.09999 | 38859 ft | 546 kts | 92° |
| 2026-05-04 23:29 | 40.58974 | 48.19986 | 38855 ft | 548 kts | 92° |
| 2026-05-04 23:30 | 40.59297 | 48.30024 | 38857 ft | 549 kts | 93° |
| 2026-05-04 23:30 | 40.59562 | 48.40075 | 38856 ft | 549 kts | 94° |
| 2026-05-04 23:31 | 40.59804 | 48.50108 | 38835 ft | 548 kts | 93° |
| 2026-05-04 23:31 | 40.60034 | 48.60083 | 38858 ft | 550 kts | 93° |
| 2026-05-04 23:32 | 40.60264 | 48.70144 | 38849 ft | 550 kts | 93° |
| 2026-05-04 23:32 | 40.60486 | 48.80218 | 38852 ft | 550 kts | 94° |
| 2026-05-04 23:33 | 40.60698 | 48.90285 | 38850 ft | 550 kts | 94° |
| 2026-05-04 23:33 | 40.60900 | 49.00350 | 38855 ft | 549 kts | 93° |
| 2026-05-04 23:34 | 40.61093 | 49.10373 | 38864 ft | 547 kts | 93° |
| 2026-05-04 23:34 | 40.61277 | 49.20387 | 38871 ft | 546 kts | 93° |
| 2026-05-04 23:35 | 40.61731 | 49.30326 | 38866 ft | 549 kts | 89° |
| 2026-05-04 23:35 | 40.62398 | 49.40318 | 38877 ft | 547 kts | 89° |
| 2026-05-04 23:36 | 40.63027 | 49.50295 | 38881 ft | 546 kts | 89° |
| 2026-05-04 23:36 | 40.63598 | 49.60261 | 38879 ft | 546 kts | 89° |
| 2026-05-04 23:37 | 40.64144 | 49.70255 | 38874 ft | 547 kts | 89° |
| 2026-05-04 23:37 | 40.64680 | 49.80249 | 38870 ft | 546 kts | 89° |
| 2026-05-04 23:38 | 40.65209 | 49.90213 | 38865 ft | 545 kts | 89° |
| 2026-05-04 23:38 | 40.65730 | 50.00173 | 38866 ft | 545 kts | 89° |
| 2026-05-04 23:39 | 40.66242 | 50.10133 | 38866 ft | 545 kts | 89° |
| 2026-05-04 23:39 | 40.66742 | 50.20041 | 38863 ft | 546 kts | 89° |
| 2026-05-04 23:40 | 40.67239 | 50.30044 | 38873 ft | 548 kts | 89° |
| 2026-05-04 23:40 | 40.67729 | 50.40071 | 38875 ft | 548 kts | 90° |
| 2026-05-04 23:41 | 40.68131 | 50.48428 | 38877 ft | 548 kts | 90° |
| 2026-05-04 23:41 | 40.68604 | 50.58468 | 38879 ft | 548 kts | 90° |
| 2026-05-04 23:42 | 40.69141 | 50.70125 | 38879 ft | 548 kts | 90° |
| 2026-05-04 23:42 | 40.69522 | 50.78531 | 38878 ft | 548 kts | 90° |
| 2026-05-04 23:43 | 40.69965 | 50.88500 | 38881 ft | 548 kts | 90° |
| 2026-05-04 23:43 | 40.70403 | 50.98539 | 38887 ft | 549 kts | 90° |
| 2026-05-04 23:44 | 40.70832 | 51.08583 | 38890 ft | 549 kts | 90° |
| 2026-05-04 23:44 | 40.71253 | 51.18629 | 38891 ft | 549 kts | 90° |
| 2026-05-04 23:45 | 40.71665 | 51.28678 | 38889 ft | 549 kts | 90° |
| 2026-05-04 23:45 | 40.72068 | 51.38713 | 38887 ft | 548 kts | 90° |
| 2026-05-04 23:46 | 40.72536 | 51.48746 | 38885 ft | 550 kts | 85° |
| 2026-05-04 23:46 | 40.73932 | 51.58696 | 38889 ft | 552 kts | 80° |
| 2026-05-04 23:47 | 40.75544 | 51.68534 | 38880 ft | 552 kts | 79° |
| 2026-05-04 23:47 | 40.77196 | 51.78438 | 38882 ft | 553 kts | 79° |
| 2026-05-04 23:48 | 40.78826 | 51.88344 | 38887 ft | 553 kts | 80° |
| 2026-05-04 23:48 | 40.80438 | 51.98269 | 38885 ft | 553 kts | 80° |
| 2026-05-04 23:49 | 40.82035 | 52.08192 | 38881 ft | 553 kts | 80° |
| 2026-05-04 23:49 | 40.83627 | 52.18138 | 38880 ft | 553 kts | 79° |
| 2026-05-04 23:50 | 40.85210 | 52.28080 | 38875 ft | 553 kts | 80° |
| 2026-05-04 23:50 | 40.86774 | 52.37959 | 38876 ft | 553 kts | 80° |
| 2026-05-04 23:51 | 40.88345 | 52.47941 | 38876 ft | 553 kts | 80° |
| 2026-05-04 23:51 | 40.89895 | 52.57902 | 38874 ft | 553 kts | 81° |
| 2026-05-04 23:52 | 40.90671 | 52.67973 | 38873 ft | 550 kts | 88° |
| 2026-05-04 23:52 | 40.91133 | 52.77997 | 38875 ft | 550 kts | 89° |
| 2026-05-04 23:53 | 40.91540 | 52.88114 | 38856 ft | 550 kts | 89° |
| 2026-05-04 23:53 | 40.91945 | 52.98215 | 38872 ft | 550 kts | 89° |
| 2026-05-04 23:54 | 40.92353 | 53.08334 | 38875 ft | 550 kts | 89° |
| 2026-05-04 23:54 | 40.92754 | 53.18367 | 38873 ft | 550 kts | 89° |
| 2026-05-04 23:55 | 40.93136 | 53.28474 | 38876 ft | 550 kts | 89° |
| 2026-05-04 23:56 | 40.93686 | 53.43626 | 38869 ft | 550 kts | 89° |
| 2026-05-04 23:56 | 40.94046 | 53.53732 | 38867 ft | 550 kts | 89° |
| 2026-05-04 23:57 | 40.94396 | 53.63794 | 38873 ft | 550 kts | 89° |
| 2026-05-04 23:57 | 40.94739 | 53.73934 | 38868 ft | 550 kts | 89° |
| 2026-05-04 23:58 | 40.95073 | 53.84053 | 38865 ft | 550 kts | 90° |
| 2026-05-04 23:58 | 40.95396 | 53.94092 | 38872 ft | 549 kts | 89° |
| 2026-05-04 23:59 | 40.95712 | 54.04197 | 38870 ft | 549 kts | 89° |
| 2026-05-04 23:59 | 40.96019 | 54.14294 | 38858 ft | 549 kts | 89° |
| 2026-05-05 00:00 | 40.96317 | 54.24390 | 38862 ft | 550 kts | 90° |
| 2026-05-05 00:00 | 40.96607 | 54.34513 | 38867 ft | 550 kts | 90° |
| 2026-05-05 00:01 | 40.96888 | 54.44636 | 38874 ft | 550 kts | 90° |
| 2026-05-05 00:01 | 40.97158 | 54.54688 | 38870 ft | 550 kts | 90° |
| 2026-05-05 00:02 | 40.97422 | 54.64809 | 38873 ft | 550 kts | 90° |
| 2026-05-05 00:02 | 40.97676 | 54.74927 | 38856 ft | 550 kts | 90° |
| 2026-05-05 00:03 | 40.97921 | 54.85054 | 38874 ft | 551 kts | 90° |
| 2026-05-05 00:03 | 40.98160 | 54.95196 | 38874 ft | 551 kts | 90° |
| 2026-05-05 00:04 | 40.98377 | 55.05347 | 38874 ft | 552 kts | 90° |
| 2026-05-05 00:04 | 40.98583 | 55.15522 | 38862 ft | 552 kts | 90° |
| 2026-05-05 00:05 | 40.98781 | 55.25609 | 38874 ft | 552 kts | 90° |
| 2026-05-05 00:05 | 40.98973 | 55.35786 | 38863 ft | 552 kts | 90° |
| 2026-05-05 00:06 | 40.99156 | 55.45954 | 38867 ft | 553 kts | 90° |
| 2026-05-05 00:06 | 40.99332 | 55.56160 | 38868 ft | 554 kts | 90° |
| 2026-05-05 00:07 | 40.99498 | 55.66361 | 38862 ft | 554 kts | 90° |
| 2026-05-05 00:07 | 40.99655 | 55.76571 | 38857 ft | 554 kts | 90° |
| 2026-05-05 00:08 | 40.99813 | 55.86771 | 38858 ft | 554 kts | 90° |
| 2026-05-05 00:08 | 40.99976 | 55.96904 | 38842 ft | 554 kts | 90° |
| 2026-05-05 00:09 | 41.00131 | 56.07096 | 38855 ft | 554 kts | 90° |
| 2026-05-05 00:09 | 41.00275 | 56.17285 | 38856 ft | 554 kts | 90° |
| 2026-05-05 00:10 | 41.00408 | 56.27470 | 38854 ft | 553 kts | 90° |
| 2026-05-05 00:10 | 41.00532 | 56.37643 | 38857 ft | 552 kts | 90° |
| 2026-05-05 00:11 | 41.00655 | 56.47809 | 38855 ft | 552 kts | 89° |
| 2026-05-05 00:11 | 41.01531 | 56.57915 | 38853 ft | 553 kts | 82° |
| 2026-05-05 00:12 | 41.02705 | 56.67965 | 38861 ft | 550 kts | 81° |
| 2026-05-05 00:12 | 41.03918 | 56.77972 | 38865 ft | 549 kts | 81° |
| 2026-05-05 00:13 | 41.05111 | 56.87964 | 38868 ft | 549 kts | 81° |
| 2026-05-05 00:13 | 41.06277 | 56.97903 | 38865 ft | 548 kts | 81° |
| 2026-05-05 00:14 | 41.07435 | 57.07893 | 38871 ft | 547 kts | 81° |
| 2026-05-05 00:14 | 41.08582 | 57.17863 | 38867 ft | 547 kts | 81° |
| 2026-05-05 00:15 | 41.09724 | 57.27860 | 38870 ft | 547 kts | 81° |
| 2026-05-05 00:15 | 41.10847 | 57.37774 | 38867 ft | 546 kts | 81° |
| 2026-05-05 00:16 | 41.11967 | 57.47733 | 38867 ft | 546 kts | 81° |
| 2026-05-05 00:16 | 41.13078 | 57.57699 | 38867 ft | 546 kts | 81° |
| 2026-05-05 00:17 | 41.14179 | 57.67652 | 38870 ft | 544 kts | 81° |
| 2026-05-05 00:17 | 41.15268 | 57.77575 | 38872 ft | 543 kts | 81° |
| 2026-05-05 00:18 | 41.16347 | 57.87490 | 38869 ft | 543 kts | 81° |
| 2026-05-05 00:18 | 41.17418 | 57.97414 | 38874 ft | 543 kts | 81° |
| 2026-05-05 00:19 | 41.18482 | 58.07353 | 38879 ft | 543 kts | 81° |
| 2026-05-05 00:19 | 41.19541 | 58.17285 | 38876 ft | 543 kts | 82° |
| 2026-05-05 00:20 | 41.20586 | 58.27217 | 38875 ft | 543 kts | 82° |
| 2026-05-05 00:20 | 41.21618 | 58.37113 | 38879 ft | 542 kts | 82° |
| 2026-05-05 00:21 | 41.22645 | 58.47031 | 38879 ft | 541 kts | 82° |
| 2026-05-05 00:21 | 41.23663 | 58.56942 | 38872 ft | 541 kts | 82° |
| 2026-05-05 00:22 | 41.24671 | 58.66844 | 38884 ft | 540 kts | 82° |
| 2026-05-05 00:22 | 41.25663 | 58.76676 | 38883 ft | 540 kts | 82° |
| 2026-05-05 00:23 | 41.26652 | 58.86562 | 38889 ft | 539 kts | 82° |
| 2026-05-05 00:23 | 41.27634 | 58.96462 | 38887 ft | 539 kts | 82° |
| 2026-05-05 00:24 | 41.28605 | 59.06346 | 38887 ft | 538 kts | 82° |
| 2026-05-05 00:24 | 41.29565 | 59.16207 | 38889 ft | 537 kts | 82° |
| 2026-05-05 00:25 | 41.30516 | 59.26060 | 38891 ft | 537 kts | 82° |
| 2026-05-05 00:25 | 41.31453 | 59.35857 | 38895 ft | 537 kts | 82° |
| 2026-05-05 00:26 | 41.32387 | 59.45712 | 38889 ft | 536 kts | 82° |
| 2026-05-05 00:26 | 41.33310 | 59.55551 | 38884 ft | 535 kts | 82° |
| 2026-05-05 00:27 | 41.34149 | 59.65410 | 38888 ft | 536 kts | 87° |
| 2026-05-05 00:27 | 41.33980 | 59.75325 | 38895 ft | 536 kts | 93° |
| 2026-05-05 00:28 | 41.33532 | 59.85209 | 38892 ft | 535 kts | 94° |
| 2026-05-05 00:28 | 41.33115 | 59.93427 | 38897 ft | 535 kts | 94° |
| 2026-05-05 00:29 | 41.32536 | 60.04913 | 38900 ft | 535 kts | 94° |
| 2026-05-05 00:29 | 41.32054 | 60.14783 | 38903 ft | 535 kts | 94° |
| 2026-05-05 00:30 | 41.31655 | 60.23066 | 38899 ft | 535 kts | 94° |
| 2026-05-05 00:30 | 41.31172 | 60.32939 | 38900 ft | 535 kts | 94° |
| 2026-05-05 00:31 | 41.30806 | 60.42755 | 38905 ft | 535 kts | 88° |
| 2026-05-05 00:31 | 41.31188 | 60.52643 | 38908 ft | 535 kts | 86° |
| 2026-05-05 00:32 | 41.31710 | 60.62512 | 38901 ft | 534 kts | 85° |
| 2026-05-05 00:32 | 41.32246 | 60.72368 | 38909 ft | 534 kts | 85° |
| 2026-05-05 00:33 | 41.32762 | 60.82224 | 38911 ft | 534 kts | 86° |
| 2026-05-05 00:33 | 41.33262 | 60.92089 | 38914 ft | 534 kts | 86° |
| 2026-05-05 00:34 | 41.33751 | 61.01948 | 38912 ft | 534 kts | 86° |
| 2026-05-05 00:34 | 41.34228 | 61.11744 | 38922 ft | 534 kts | 86° |
| 2026-05-05 00:35 | 41.34701 | 61.21615 | 38916 ft | 534 kts | 86° |
| 2026-05-05 00:35 | 41.35165 | 61.31485 | 38929 ft | 535 kts | 86° |
| 2026-05-05 00:36 | 41.35623 | 61.41392 | 38931 ft | 536 kts | 86° |
| 2026-05-05 00:36 | 41.36076 | 61.51308 | 38926 ft | 536 kts | 86° |
| 2026-05-05 00:37 | 41.36520 | 61.61204 | 38933 ft | 536 kts | 86° |
| 2026-05-05 00:37 | 41.36955 | 61.71105 | 38940 ft | 536 kts | 86° |
| 2026-05-05 00:38 | 41.37383 | 61.81013 | 38944 ft | 536 kts | 86° |
| 2026-05-05 00:38 | 41.37799 | 61.90862 | 38938 ft | 536 kts | 86° |
| 2026-05-05 00:39 | 41.38209 | 62.00778 | 38942 ft | 537 kts | 86° |
| 2026-05-05 00:39 | 41.38612 | 62.10719 | 38944 ft | 537 kts | 86° |
| 2026-05-05 00:40 | 41.39007 | 62.20671 | 38955 ft | 538 kts | 86° |
| 2026-05-05 00:40 | 41.39394 | 62.30623 | 38952 ft | 537 kts | 86° |
| 2026-05-05 00:41 | 41.39771 | 62.40565 | 38955 ft | 537 kts | 86° |
| 2026-05-05 00:41 | 41.40140 | 62.50514 | 38955 ft | 538 kts | 86° |
| 2026-05-05 00:42 | 41.40523 | 62.60467 | 38959 ft | 537 kts | 86° |
| 2026-05-05 00:42 | 41.40911 | 62.70352 | 38962 ft | 538 kts | 86° |
| 2026-05-05 00:43 | 41.41291 | 62.80300 | 38963 ft | 538 kts | 86° |
| 2026-05-05 00:43 | 41.41660 | 62.90251 | 38968 ft | 537 kts | 86° |
| 2026-05-05 00:44 | 41.42018 | 63.00174 | 38966 ft | 536 kts | 86° |
| 2026-05-05 00:44 | 41.42368 | 63.10114 | 38966 ft | 536 kts | 86° |
| 2026-05-05 00:45 | 41.42707 | 63.19980 | 38968 ft | 535 kts | 86° |
| 2026-05-05 00:45 | 41.43039 | 63.29879 | 38971 ft | 534 kts | 86° |
| 2026-05-05 00:46 | 41.43363 | 63.39776 | 38972 ft | 534 kts | 86° |
| 2026-05-05 00:46 | 41.43678 | 63.49668 | 38971 ft | 534 kts | 86° |
| 2026-05-05 00:47 | 41.43984 | 63.59554 | 38977 ft | 533 kts | 86° |
| 2026-05-05 00:47 | 41.44281 | 63.69432 | 38974 ft | 533 kts | 86° |
| 2026-05-05 00:48 | 41.44556 | 63.79317 | 38977 ft | 533 kts | 86° |
| 2026-05-05 00:48 | 41.44817 | 63.89188 | 38980 ft | 532 kts | 86° |
| 2026-05-05 00:49 | 41.45071 | 63.98990 | 38985 ft | 532 kts | 86° |
| 2026-05-05 00:49 | 41.45318 | 64.08846 | 38988 ft | 532 kts | 86° |
| 2026-05-05 00:50 | 41.45558 | 64.18682 | 38986 ft | 531 kts | 86° |
| 2026-05-05 00:50 | 41.45788 | 64.28525 | 38985 ft | 531 kts | 87° |
| 2026-05-05 00:51 | 41.46011 | 64.38369 | 38981 ft | 530 kts | 87° |
| 2026-05-05 00:51 | 41.46224 | 64.48135 | 38982 ft | 529 kts | 87° |
| 2026-05-05 00:52 | 41.46429 | 64.57939 | 38982 ft | 529 kts | 87° |
| 2026-05-05 00:52 | 41.46626 | 64.67775 | 38982 ft | 529 kts | 87° |
| 2026-05-05 00:53 | 41.46815 | 64.77602 | 38985 ft | 529 kts | 87° |
| 2026-05-05 00:53 | 41.46994 | 64.87355 | 38985 ft | 529 kts | 87° |
| 2026-05-05 00:54 | 41.47166 | 64.97190 | 38988 ft | 529 kts | 87° |
| 2026-05-05 00:54 | 41.47329 | 65.07001 | 38982 ft | 528 kts | 87° |
| 2026-05-05 00:55 | 41.47483 | 65.16777 | 38982 ft | 527 kts | 87° |
| 2026-05-05 00:55 | 41.47629 | 65.26547 | 38973 ft | 527 kts | 87° |
| 2026-05-05 00:56 | 41.47767 | 65.36315 | 38979 ft | 527 kts | 88° |
| 2026-05-05 00:56 | 41.47896 | 65.46017 | 38980 ft | 526 kts | 88° |
| 2026-05-05 00:57 | 41.48017 | 65.55792 | 38984 ft | 526 kts | 88° |
| 2026-05-05 00:57 | 41.48130 | 65.65544 | 38981 ft | 525 kts | 88° |
| 2026-05-05 00:58 | 41.48235 | 65.75289 | 38979 ft | 525 kts | 88° |
| 2026-05-05 00:58 | 41.48319 | 65.84971 | 38980 ft | 524 kts | 88° |
| 2026-05-05 00:59 | 41.48340 | 65.94701 | 38985 ft | 524 kts | 88° |
| 2026-05-05 00:59 | 41.48344 | 66.04425 | 38982 ft | 524 kts | 88° |
| 2026-05-05 01:00 | 41.48348 | 66.14148 | 38994 ft | 524 kts | 88° |
| 2026-05-05 01:00 | 41.48350 | 66.23867 | 38985 ft | 524 kts | 88° |
| 2026-05-05 01:01 | 41.48344 | 66.33530 | 38984 ft | 524 kts | 89° |
| 2026-05-05 01:01 | 41.48330 | 66.43251 | 38982 ft | 523 kts | 89° |
| 2026-05-05 01:02 | 41.48308 | 66.52962 | 38985 ft | 523 kts | 89° |
| 2026-05-05 01:02 | 41.47932 | 66.62650 | 38989 ft | 525 kts | 98° |
| 2026-05-05 01:03 | 41.46683 | 66.72253 | 38984 ft | 525 kts | 100° |
| 2026-05-05 01:03 | 41.45277 | 66.81813 | 38990 ft | 526 kts | 100° |
| 2026-05-05 01:04 | 41.43847 | 66.91367 | 38989 ft | 526 kts | 100° |
| 2026-05-05 01:04 | 41.41718 | 67.05676 | 38994 ft | 527 kts | 100° |
| 2026-05-05 01:05 | 41.40290 | 67.15264 | 38993 ft | 527 kts | 100° |
| 2026-05-05 01:05 | 41.38854 | 67.24846 | 38998 ft | 528 kts | 100° |
| 2026-05-05 01:06 | 41.37408 | 67.34438 | 38993 ft | 529 kts | 100° |
| 2026-05-05 01:06 | 41.35950 | 67.44048 | 38991 ft | 529 kts | 100° |
| 2026-05-05 01:07 | 41.34486 | 67.53644 | 38993 ft | 529 kts | 100° |
| 2026-05-05 01:07 | 41.33018 | 67.63203 | 38998 ft | 530 kts | 100° |
| 2026-05-05 01:08 | 41.31532 | 67.72828 | 38988 ft | 531 kts | 100° |
| 2026-05-05 01:08 | 41.30037 | 67.82450 | 38993 ft | 531 kts | 100° |
| 2026-05-05 01:09 | 41.28559 | 67.92072 | 38977 ft | 530 kts | 98° |
| 2026-05-05 01:09 | 41.27575 | 68.01789 | 38983 ft | 530 kts | 95° |
| 2026-05-05 01:10 | 41.26708 | 68.11455 | 38988 ft | 530 kts | 95° |
| 2026-05-05 01:10 | 41.25848 | 68.21186 | 38996 ft | 530 kts | 95° |
| 2026-05-05 01:11 | 41.24973 | 68.30920 | 38994 ft | 530 kts | 95° |
| 2026-05-05 01:11 | 41.24083 | 68.40644 | 38995 ft | 530 kts | 95° |
| 2026-05-05 01:12 | 41.23184 | 68.50368 | 38988 ft | 530 kts | 95° |
| 2026-05-05 01:12 | 41.22274 | 68.60103 | 38990 ft | 530 kts | 95° |
| 2026-05-05 01:13 | 41.21359 | 68.69822 | 38989 ft | 530 kts | 95° |
| 2026-05-05 01:13 | 41.20436 | 68.79529 | 38986 ft | 530 kts | 95° |
| 2026-05-05 01:14 | 41.19513 | 68.89178 | 39002 ft | 530 kts | 95° |
| 2026-05-05 01:14 | 41.19069 | 68.98933 | 39000 ft | 527 kts | 90° |
| 2026-05-05 01:15 | 41.18806 | 69.08667 | 39008 ft | 527 kts | 90° |
| 2026-05-05 01:15 | 41.18566 | 69.18383 | 39016 ft | 527 kts | 90° |
| 2026-05-05 01:16 | 41.18216 | 69.28036 | 39021 ft | 527 kts | 93° |
| 2026-05-05 01:16 | 41.17382 | 69.37730 | 38993 ft | 527 kts | 95° |
| 2026-05-05 01:17 | 41.16624 | 69.45747 | 39004 ft | 527 kts | 95° |
| 2026-05-05 01:17 | 41.15766 | 69.55397 | 39024 ft | 527 kts | 95° |
| 2026-05-05 01:18 | 41.14818 | 69.66619 | 39024 ft | 525 kts | 94° |
| 2026-05-05 01:18 | 41.14008 | 69.76256 | 39025 ft | 525 kts | 94° |
| 2026-05-05 01:19 | 41.13328 | 69.84256 | 39040 ft | 525 kts | 94° |
| 2026-05-05 01:19 | 41.12500 | 69.93880 | 39057 ft | 524 kts | 95° |
| 2026-05-05 01:20 | 41.11667 | 70.03453 | 39052 ft | 522 kts | 95° |
| 2026-05-05 01:20 | 41.10827 | 70.13020 | 39066 ft | 523 kts | 95° |
| 2026-05-05 01:21 | 41.10062 | 70.22597 | 39078 ft | 521 kts | 90° |
| 2026-05-05 01:21 | 41.10402 | 70.32164 | 39066 ft | 518 kts | 83° |
| 2026-05-05 01:22 | 41.11072 | 70.41625 | 39078 ft | 518 kts | 82° |
| 2026-05-05 01:22 | 41.11793 | 70.51154 | 39083 ft | 519 kts | 82° |
| 2026-05-05 01:23 | 41.12492 | 70.60666 | 39083 ft | 517 kts | 82° |
| 2026-05-05 01:23 | 41.13167 | 70.70174 | 39078 ft | 517 kts | 82° |
| 2026-05-05 01:24 | 41.13834 | 70.79671 | 39078 ft | 517 kts | 83° |
| 2026-05-05 01:24 | 41.14485 | 70.89174 | 39086 ft | 517 kts | 83° |
| 2026-05-05 01:25 | 41.15125 | 70.98612 | 39075 ft | 516 kts | 83° |
| 2026-05-05 01:25 | 41.15762 | 71.08099 | 39069 ft | 516 kts | 83° |
| 2026-05-05 01:26 | 41.16393 | 71.17595 | 39064 ft | 516 kts | 83° |
| 2026-05-05 01:26 | 41.17014 | 71.27083 | 39058 ft | 516 kts | 83° |
| 2026-05-05 01:27 | 41.17627 | 71.36576 | 39058 ft | 516 kts | 83° |
| 2026-05-05 01:27 | 41.18230 | 71.46013 | 39056 ft | 516 kts | 83° |
| 2026-05-05 01:28 | 41.18828 | 71.55502 | 39052 ft | 516 kts | 83° |
| 2026-05-05 01:28 | 41.19418 | 71.64990 | 39048 ft | 515 kts | 84° |
| 2026-05-05 01:29 | 41.19999 | 71.74458 | 39055 ft | 514 kts | 84° |
| 2026-05-05 01:29 | 41.20575 | 71.83923 | 39056 ft | 514 kts | 84° |
| 2026-05-05 01:30 | 41.21136 | 71.93393 | 39059 ft | 514 kts | 84° |
| 2026-05-05 01:30 | 41.21682 | 72.02790 | 39062 ft | 513 kts | 84° |
| 2026-05-05 01:31 | 41.22226 | 72.12249 | 39065 ft | 513 kts | 84° |
| 2026-05-05 01:31 | 41.22762 | 72.21699 | 39065 ft | 513 kts | 84° |
| 2026-05-05 01:32 | 41.23298 | 72.31162 | 39062 ft | 513 kts | 84° |
| 2026-05-05 01:32 | 41.23831 | 72.40626 | 39067 ft | 513 kts | 84° |
| 2026-05-05 01:33 | 41.24352 | 72.50018 | 39075 ft | 513 kts | 84° |
| 2026-05-05 01:33 | 41.24867 | 72.59468 | 39081 ft | 513 kts | 84° |
| 2026-05-05 01:34 | 41.25371 | 72.68916 | 39086 ft | 512 kts | 85° |
| 2026-05-05 01:34 | 41.25860 | 72.78356 | 39080 ft | 511 kts | 85° |
| 2026-05-05 01:35 | 41.26341 | 72.87784 | 39086 ft | 511 kts | 85° |
| 2026-05-05 01:35 | 41.26816 | 72.97224 | 39109 ft | 511 kts | 85° |
| 2026-05-05 01:36 | 41.27284 | 73.06648 | 39110 ft | 510 kts | 85° |
| 2026-05-05 01:36 | 41.27739 | 73.15988 | 39102 ft | 509 kts | 85° |
| 2026-05-05 01:37 | 41.28190 | 73.25388 | 39115 ft | 509 kts | 85° |
| 2026-05-05 01:37 | 41.28633 | 73.34793 | 39116 ft | 509 kts | 86° |
| 2026-05-05 01:38 | 41.29068 | 73.44187 | 39114 ft | 509 kts | 86° |
| 2026-05-05 01:38 | 41.29495 | 73.53589 | 39126 ft | 509 kts | 86° |
| 2026-05-05 01:39 | 41.29915 | 73.62987 | 39125 ft | 509 kts | 86° |
| 2026-05-05 01:39 | 41.30327 | 73.72378 | 39129 ft | 509 kts | 86° |
| 2026-05-05 01:40 | 41.30731 | 73.81779 | 39129 ft | 509 kts | 86° |
| 2026-05-05 01:40 | 41.31126 | 73.91126 | 39135 ft | 509 kts | 86° |
| 2026-05-05 01:41 | 41.31515 | 74.00522 | 39142 ft | 509 kts | 86° |
| 2026-05-05 01:41 | 41.32083 | 74.09911 | 39134 ft | 509 kts | 84° |
| 2026-05-05 01:42 | 41.32822 | 74.19288 | 39136 ft | 509 kts | 84° |
| 2026-05-05 01:42 | 41.33537 | 74.28670 | 39136 ft | 509 kts | 84° |
| 2026-05-05 01:43 | 41.34210 | 74.38068 | 39139 ft | 509 kts | 84° |
| 2026-05-05 01:43 | 41.34857 | 74.47414 | 39137 ft | 510 kts | 84° |
| 2026-05-05 01:44 | 41.35499 | 74.56802 | 39136 ft | 509 kts | 84° |
| 2026-05-05 01:44 | 41.36136 | 74.66192 | 39137 ft | 509 kts | 85° |
| 2026-05-05 01:45 | 41.36765 | 74.75577 | 39136 ft | 509 kts | 85° |
| 2026-05-05 01:45 | 41.37385 | 74.84963 | 39137 ft | 509 kts | 85° |
| 2026-05-05 01:46 | 41.37999 | 74.94341 | 39139 ft | 509 kts | 85° |
| 2026-05-05 01:46 | 41.38604 | 75.03735 | 39138 ft | 509 kts | 85° |
| 2026-05-05 01:47 | 41.39202 | 75.13137 | 39145 ft | 509 kts | 85° |
| 2026-05-05 01:47 | 41.39790 | 75.22497 | 39151 ft | 510 kts | 85° |
| 2026-05-05 01:48 | 41.40374 | 75.31915 | 39151 ft | 510 kts | 85° |
| 2026-05-05 01:48 | 41.40951 | 75.41340 | 39149 ft | 510 kts | 85° |
| 2026-05-05 01:49 | 41.41520 | 75.50780 | 39145 ft | 511 kts | 85° |
| 2026-05-05 01:49 | 41.42079 | 75.60162 | 39145 ft | 511 kts | 85° |
| 2026-05-05 01:50 | 41.42634 | 75.69610 | 39142 ft | 511 kts | 85° |
| 2026-05-05 01:50 | 41.43183 | 75.79056 | 39140 ft | 511 kts | 85° |
| 2026-05-05 01:51 | 41.43723 | 75.88499 | 39143 ft | 511 kts | 85° |
| 2026-05-05 01:51 | 41.44255 | 75.97956 | 39146 ft | 511 kts | 85° |
| 2026-05-05 01:52 | 41.44781 | 76.07410 | 39145 ft | 511 kts | 86° |
| 2026-05-05 01:52 | 41.45294 | 76.16796 | 39149 ft | 511 kts | 86° |
| 2026-05-05 01:53 | 41.45804 | 76.26254 | 39155 ft | 511 kts | 86° |
| 2026-05-05 01:53 | 41.46306 | 76.35715 | 39156 ft | 511 kts | 86° |
| 2026-05-05 01:54 | 41.46801 | 76.45190 | 39156 ft | 511 kts | 86° |
| 2026-05-05 01:54 | 41.47285 | 76.54591 | 39152 ft | 511 kts | 86° |
| 2026-05-05 01:55 | 41.47764 | 76.64060 | 39155 ft | 511 kts | 86° |
| 2026-05-05 01:55 | 41.48235 | 76.73511 | 39154 ft | 511 kts | 86° |
| 2026-05-05 01:56 | 41.48698 | 76.82967 | 39156 ft | 511 kts | 86° |
| 2026-05-05 01:56 | 41.49153 | 76.92423 | 39159 ft | 511 kts | 86° |
| 2026-05-05 01:57 | 41.49600 | 77.01879 | 39163 ft | 511 kts | 86° |
| 2026-05-05 01:57 | 41.50037 | 77.11288 | 39157 ft | 511 kts | 86° |
| 2026-05-05 01:58 | 41.50469 | 77.20744 | 39161 ft | 511 kts | 86° |
| 2026-05-05 01:58 | 41.50893 | 77.30209 | 39160 ft | 511 kts | 87° |
| 2026-05-05 01:59 | 41.51311 | 77.39698 | 39157 ft | 511 kts | 87° |
| 2026-05-05 01:59 | 41.51720 | 77.49167 | 39158 ft | 511 kts | 87° |
| 2026-05-05 02:00 | 41.52119 | 77.58580 | 39146 ft | 511 kts | 87° |
| 2026-05-05 02:00 | 41.52513 | 77.68066 | 39147 ft | 511 kts | 87° |
| 2026-05-05 02:01 | 41.52899 | 77.77567 | 39145 ft | 511 kts | 87° |
| 2026-05-05 02:01 | 41.53277 | 77.87043 | 39145 ft | 511 kts | 87° |
| 2026-05-05 02:02 | 41.53646 | 77.96473 | 39151 ft | 511 kts | 87° |
| 2026-05-05 02:02 | 41.54008 | 78.05954 | 39143 ft | 511 kts | 88° |
| 2026-05-05 02:03 | 41.54362 | 78.15432 | 39144 ft | 511 kts | 88° |
| 2026-05-05 02:03 | 41.54708 | 78.24913 | 39142 ft | 511 kts | 88° |
| 2026-05-05 02:04 | 41.55048 | 78.34396 | 39139 ft | 511 kts | 88° |
| 2026-05-05 02:04 | 41.55379 | 78.43881 | 39132 ft | 511 kts | 88° |
| 2026-05-05 02:05 | 41.55701 | 78.53298 | 39136 ft | 511 kts | 88° |
| 2026-05-05 02:05 | 41.56017 | 78.62794 | 39136 ft | 511 kts | 88° |
| 2026-05-05 02:06 | 41.56275 | 78.70682 | 39110 ft | 511 kts | 88° |
| 2026-05-05 02:06 | 41.56514 | 78.80171 | 39110 ft | 512 kts | 92° |
| 2026-05-05 02:07 | 41.55445 | 78.89529 | 39155 ft | 510 kts | 104° |
| 2026-05-05 02:07 | 41.53700 | 78.98717 | 39138 ft | 510 kts | 106° |
| 2026-05-05 02:08 | 41.51841 | 79.07864 | 39125 ft | 510 kts | 106° |
| 2026-05-05 02:08 | 41.49981 | 79.17013 | 39060 ft | 511 kts | 106° |
| 2026-05-05 02:09 | 41.48133 | 79.26174 | 39063 ft | 511 kts | 106° |
| 2026-05-05 02:09 | 41.46285 | 79.35334 | 39035 ft | 512 kts | 106° |
| 2026-05-05 02:10 | 41.44441 | 79.44441 | 38985 ft | 512 kts | 106° |
| 2026-05-05 02:10 | 41.42574 | 79.53616 | 38986 ft | 513 kts | 106° |
| 2026-05-05 02:11 | 41.40695 | 79.62807 | 38978 ft | 514 kts | 107° |
| 2026-05-05 02:11 | 41.38808 | 79.71991 | 38959 ft | 514 kts | 107° |
| 2026-05-05 02:12 | 41.35976 | 79.85702 | 38956 ft | 514 kts | 107° |
| 2026-05-05 02:13 | 41.34071 | 79.94877 | 38956 ft | 514 kts | 107° |
| 2026-05-05 02:13 | 41.32153 | 80.04072 | 38945 ft | 515 kts | 107° |
| 2026-05-05 02:14 | 41.30231 | 80.13243 | 38945 ft | 515 kts | 107° |
| 2026-05-05 02:14 | 41.28299 | 80.22423 | 38946 ft | 515 kts | 107° |
| 2026-05-05 02:15 | 41.26359 | 80.31600 | 38937 ft | 516 kts | 107° |
| 2026-05-05 02:15 | 41.24409 | 80.40781 | 38937 ft | 516 kts | 107° |
| 2026-05-05 02:16 | 41.22447 | 80.49897 | 38940 ft | 516 kts | 108° |
| 2026-05-05 02:16 | 41.20466 | 80.59065 | 38937 ft | 516 kts | 108° |
| 2026-05-05 02:17 | 41.18481 | 80.68228 | 38928 ft | 517 kts | 108° |
| 2026-05-05 02:17 | 41.16482 | 80.77418 | 38935 ft | 518 kts | 108° |
| 2026-05-05 02:18 | 41.14472 | 80.86624 | 38931 ft | 519 kts | 108° |
| 2026-05-05 02:18 | 41.12468 | 80.95765 | 38931 ft | 520 kts | 108° |
| 2026-05-05 02:19 | 41.10427 | 81.05035 | 38932 ft | 521 kts | 108° |
| 2026-05-05 02:19 | 41.08399 | 81.14205 | 38933 ft | 521 kts | 108° |
| 2026-05-05 02:20 | 41.06352 | 81.23422 | 38931 ft | 521 kts | 108° |
| 2026-05-05 02:20 | 41.04297 | 81.32640 | 38930 ft | 522 kts | 109° |
| 2026-05-05 02:21 | 41.02228 | 81.41876 | 38925 ft | 524 kts | 109° |
| 2026-05-05 02:21 | 41.00143 | 81.51146 | 38930 ft | 526 kts | 109° |
| 2026-05-05 02:22 | 40.98045 | 81.60436 | 38930 ft | 527 kts | 109° |
| 2026-05-05 02:22 | 40.95963 | 81.69724 | 38932 ft | 527 kts | 108° |
| 2026-05-05 02:23 | 40.94157 | 81.79162 | 38932 ft | 530 kts | 105° |
| 2026-05-05 02:23 | 40.92438 | 81.88647 | 38930 ft | 530 kts | 106° |
| 2026-05-05 02:24 | 40.90672 | 81.98115 | 38927 ft | 530 kts | 106° |
| 2026-05-05 02:24 | 40.88879 | 82.07502 | 38931 ft | 530 kts | 107° |
| 2026-05-05 02:25 | 40.87046 | 82.16998 | 38932 ft | 530 kts | 107° |
| 2026-05-05 02:25 | 40.85225 | 82.26383 | 38930 ft | 530 kts | 107° |
| 2026-05-05 02:26 | 40.83390 | 82.35810 | 38934 ft | 530 kts | 107° |
| 2026-05-05 02:26 | 40.81558 | 82.45175 | 38931 ft | 530 kts | 107° |
| 2026-05-05 02:27 | 40.79703 | 82.54618 | 38935 ft | 531 kts | 107° |
| 2026-05-05 02:27 | 40.77839 | 82.64061 | 38934 ft | 532 kts | 107° |
| 2026-05-05 02:28 | 40.75964 | 82.73515 | 38934 ft | 532 kts | 107° |
| 2026-05-05 02:28 | 40.74085 | 82.82947 | 38933 ft | 532 kts | 107° |
| 2026-05-05 02:29 | 40.72187 | 82.92426 | 38935 ft | 534 kts | 107° |
| 2026-05-05 02:29 | 40.70297 | 83.01829 | 38925 ft | 534 kts | 108° |
| 2026-05-05 02:30 | 40.68383 | 83.11303 | 38937 ft | 534 kts | 108° |
| 2026-05-05 02:30 | 40.66465 | 83.20750 | 38934 ft | 534 kts | 108° |
| 2026-05-05 02:31 | 40.64545 | 83.30167 | 38934 ft | 535 kts | 108° |
| 2026-05-05 02:31 | 40.62608 | 83.39624 | 38934 ft | 535 kts | 108° |
| 2026-05-05 02:32 | 40.60659 | 83.49097 | 38933 ft | 535 kts | 108° |
| 2026-05-05 02:32 | 40.58705 | 83.58550 | 38933 ft | 535 kts | 108° |
| 2026-05-05 02:33 | 40.56743 | 83.68001 | 38934 ft | 535 kts | 108° |
| 2026-05-05 02:33 | 40.54785 | 83.77392 | 38931 ft | 535 kts | 108° |
| 2026-05-05 02:34 | 40.52812 | 83.86810 | 38924 ft | 534 kts | 108° |
| 2026-05-05 02:34 | 40.51823 | 83.91515 | 39028 ft | 532 kts | 108° |
| 2026-05-05 02:34 | 40.50843 | 83.96194 | 39241 ft | 529 kts | 108° |
| 2026-05-05 02:34 | 40.49891 | 84.00857 | 39467 ft | 526 kts | 108° |
| 2026-05-05 02:35 | 40.48957 | 84.05490 | 39691 ft | 524 kts | 107° |
| 2026-05-05 02:35 | 40.48030 | 84.10105 | 39919 ft | 521 kts | 107° |
| 2026-05-05 02:35 | 40.47106 | 84.14691 | 40155 ft | 518 kts | 107° |
| 2026-05-05 02:35 | 40.46181 | 84.19256 | 40391 ft | 515 kts | 108° |
| 2026-05-05 02:36 | 40.45258 | 84.23789 | 40636 ft | 512 kts | 108° |
| 2026-05-05 02:36 | 40.44337 | 84.28294 | 40864 ft | 510 kts | 108° |
| 2026-05-05 02:36 | 40.43411 | 84.32805 | 40923 ft | 511 kts | 108° |
| 2026-05-05 02:37 | 40.41558 | 84.41791 | 40932 ft | 516 kts | 108° |
| 2026-05-05 02:37 | 40.39666 | 84.50932 | 40930 ft | 520 kts | 108° |
| 2026-05-05 02:38 | 40.37753 | 84.60140 | 40931 ft | 524 kts | 108° |
| 2026-05-05 02:38 | 40.35823 | 84.69395 | 40927 ft | 527 kts | 108° |
| 2026-05-05 02:39 | 40.33879 | 84.78678 | 40925 ft | 527 kts | 108° |
| 2026-05-05 02:39 | 40.31933 | 84.87928 | 40925 ft | 526 kts | 108° |
| 2026-05-05 02:40 | 40.29992 | 84.97110 | 40934 ft | 526 kts | 108° |
| 2026-05-05 02:40 | 40.28032 | 85.06345 | 40931 ft | 526 kts | 109° |
| 2026-05-05 02:41 | 40.26067 | 85.15561 | 40915 ft | 525 kts | 109° |
| 2026-05-05 02:41 | 40.24096 | 85.24764 | 40922 ft | 525 kts | 109° |
| 2026-05-05 02:42 | 40.22117 | 85.33968 | 40923 ft | 525 kts | 109° |
| 2026-05-05 02:42 | 40.20132 | 85.43158 | 40911 ft | 525 kts | 109° |
| 2026-05-05 02:43 | 40.18138 | 85.52351 | 40914 ft | 526 kts | 109° |
| 2026-05-05 02:43 | 40.16144 | 85.61505 | 40906 ft | 526 kts | 109° |
| 2026-05-05 02:44 | 40.14129 | 85.70723 | 40909 ft | 527 kts | 109° |
| 2026-05-05 02:44 | 40.12108 | 85.79929 | 40908 ft | 527 kts | 109° |
| 2026-05-05 02:45 | 40.10078 | 85.89130 | 40909 ft | 526 kts | 110° |
| 2026-05-05 02:45 | 40.08054 | 85.98268 | 40907 ft | 527 kts | 110° |
| 2026-05-05 02:46 | 40.05862 | 86.07385 | 40908 ft | 525 kts | 113° |
| 2026-05-05 02:46 | 40.03350 | 86.16329 | 40910 ft | 524 kts | 114° |
| 2026-05-05 02:47 | 40.00822 | 86.25264 | 40907 ft | 525 kts | 114° |
| 2026-05-05 02:47 | 39.98333 | 86.34242 | 40904 ft | 527 kts | 114° |
| 2026-05-05 02:48 | 39.95878 | 86.43178 | 40903 ft | 526 kts | 114° |
| 2026-05-05 02:48 | 39.93416 | 86.52127 | 40909 ft | 524 kts | 114° |
| 2026-05-05 02:49 | 39.90945 | 86.61065 | 40909 ft | 524 kts | 114° |
| 2026-05-05 02:49 | 39.88464 | 86.70001 | 40910 ft | 525 kts | 114° |
| 2026-05-05 02:50 | 39.85972 | 86.78942 | 40909 ft | 525 kts | 114° |
| 2026-05-05 02:50 | 39.83474 | 86.87876 | 40910 ft | 525 kts | 114° |
| 2026-05-05 02:51 | 39.80970 | 86.96802 | 40902 ft | 525 kts | 114° |
| 2026-05-05 02:51 | 39.78473 | 87.05672 | 40906 ft | 524 kts | 114° |
| 2026-05-05 02:52 | 39.75959 | 87.14575 | 40901 ft | 523 kts | 114° |
| 2026-05-05 02:52 | 39.73447 | 87.23438 | 40907 ft | 521 kts | 115° |
| 2026-05-05 02:53 | 39.70933 | 87.32273 | 40902 ft | 521 kts | 115° |
| 2026-05-05 02:53 | 39.68839 | 87.39610 | 40901 ft | 522 kts | 115° |
| 2026-05-05 02:54 | 39.65895 | 87.49888 | 40908 ft | 523 kts | 115° |
| 2026-05-05 02:54 | 39.63781 | 87.57250 | 40912 ft | 523 kts | 115° |
| 2026-05-05 02:55 | 39.61235 | 87.66088 | 40903 ft | 523 kts | 115° |
| 2026-05-05 02:55 | 39.58681 | 87.74925 | 40898 ft | 523 kts | 115° |
| 2026-05-05 02:56 | 39.56117 | 87.83761 | 40913 ft | 523 kts | 115° |
| 2026-05-05 02:56 | 39.53567 | 87.92526 | 40910 ft | 522 kts | 115° |
| 2026-05-05 02:57 | 39.51005 | 88.01303 | 40906 ft | 520 kts | 115° |
| 2026-05-05 02:57 | 39.48435 | 88.10073 | 40899 ft | 520 kts | 115° |
| 2026-05-05 02:58 | 39.45857 | 88.18841 | 40909 ft | 521 kts | 115° |
| 2026-05-05 02:58 | 39.43271 | 88.27606 | 40909 ft | 521 kts | 115° |
| 2026-05-05 02:59 | 39.40678 | 88.36370 | 40910 ft | 521 kts | 115° |
| 2026-05-05 02:59 | 39.38093 | 88.45078 | 40909 ft | 521 kts | 115° |
| 2026-05-05 03:00 | 39.35488 | 88.53826 | 40908 ft | 522 kts | 116° |
| 2026-05-05 03:00 | 39.32862 | 88.62612 | 40917 ft | 523 kts | 116° |
| 2026-05-05 03:01 | 39.30238 | 88.71369 | 40913 ft | 522 kts | 116° |
| 2026-05-05 03:01 | 39.27629 | 88.80044 | 40922 ft | 522 kts | 116° |
| 2026-05-05 03:02 | 39.24995 | 88.88775 | 40922 ft | 521 kts | 116° |
| 2026-05-05 03:02 | 39.22355 | 88.97494 | 40923 ft | 522 kts | 116° |
| 2026-05-05 03:03 | 39.19711 | 89.06201 | 40940 ft | 522 kts | 116° |
| 2026-05-05 03:03 | 39.17056 | 89.14917 | 40942 ft | 522 kts | 116° |
| 2026-05-05 03:04 | 39.14398 | 89.23615 | 40933 ft | 521 kts | 116° |
| 2026-05-05 03:04 | 39.11748 | 89.32257 | 40960 ft | 522 kts | 116° |
| 2026-05-05 03:05 | 39.09073 | 89.40955 | 40987 ft | 522 kts | 116° |
| 2026-05-05 03:05 | 39.06392 | 89.49646 | 40987 ft | 522 kts | 116° |
| 2026-05-05 03:06 | 39.03704 | 89.58331 | 40995 ft | 522 kts | 116° |
| 2026-05-05 03:06 | 39.01012 | 89.67000 | 41022 ft | 522 kts | 116° |
| 2026-05-05 03:07 | 38.98316 | 89.75656 | 41030 ft | 521 kts | 116° |
| 2026-05-05 03:07 | 38.95611 | 89.84315 | 41033 ft | 522 kts | 116° |
| 2026-05-05 03:08 | 38.92899 | 89.92967 | 41045 ft | 521 kts | 116° |
| 2026-05-05 03:08 | 38.90181 | 90.01609 | 41048 ft | 522 kts | 116° |
| 2026-05-05 03:09 | 38.87477 | 90.10187 | 41055 ft | 521 kts | 116° |
| 2026-05-05 03:09 | 38.84751 | 90.18804 | 41064 ft | 521 kts | 117° |
| 2026-05-05 03:10 | 38.82019 | 90.27414 | 41072 ft | 521 kts | 117° |
| 2026-05-05 03:10 | 38.79284 | 90.36011 | 41079 ft | 520 kts | 117° |
| 2026-05-05 03:11 | 38.76546 | 90.44592 | 41083 ft | 520 kts | 117° |
| 2026-05-05 03:11 | 38.73797 | 90.53176 | 41082 ft | 520 kts | 117° |
| 2026-05-05 03:12 | 38.71064 | 90.61689 | 41076 ft | 520 kts | 117° |
| 2026-05-05 03:12 | 38.68305 | 90.70257 | 41076 ft | 520 kts | 117° |
| 2026-05-05 03:13 | 38.65732 | 90.78938 | 41039 ft | 522 kts | 113° |
| 2026-05-05 03:13 | 38.63355 | 90.87756 | 41058 ft | 525 kts | 113° |
| 2026-05-05 03:14 | 38.60945 | 90.96599 | 41036 ft | 527 kts | 113° |
| 2026-05-05 03:14 | 38.58501 | 91.05363 | 41040 ft | 527 kts | 114° |
| 2026-05-05 03:15 | 38.56019 | 91.14169 | 41001 ft | 526 kts | 114° |
| 2026-05-05 03:15 | 38.53524 | 91.22977 | 40978 ft | 528 kts | 114° |
| 2026-05-05 03:16 | 38.51021 | 91.31791 | 40980 ft | 528 kts | 114° |
| 2026-05-05 03:16 | 38.48510 | 91.40609 | 40961 ft | 528 kts | 114° |
| 2026-05-05 03:17 | 38.45996 | 91.49415 | 40956 ft | 528 kts | 114° |
| 2026-05-05 03:17 | 38.43471 | 91.58225 | 40939 ft | 529 kts | 115° |
| 2026-05-05 03:18 | 38.40937 | 91.67035 | 40938 ft | 529 kts | 115° |
| 2026-05-05 03:18 | 38.38399 | 91.75835 | 40941 ft | 527 kts | 115° |
| 2026-05-05 03:19 | 38.34592 | 91.88978 | 40930 ft | 526 kts | 115° |
| 2026-05-05 03:19 | 38.32060 | 91.97681 | 40933 ft | 527 kts | 115° |
| 2026-05-05 03:20 | 38.29503 | 92.06440 | 40933 ft | 528 kts | 115° |
| 2026-05-05 03:20 | 38.26937 | 92.15203 | 40925 ft | 528 kts | 115° |
| 2026-05-05 03:21 | 38.24366 | 92.23957 | 40928 ft | 528 kts | 115° |
| 2026-05-05 03:21 | 38.21786 | 92.32713 | 40909 ft | 529 kts | 115° |
| 2026-05-05 03:22 | 38.19192 | 92.41486 | 40914 ft | 531 kts | 115° |
| 2026-05-05 03:22 | 38.16587 | 92.50270 | 40896 ft | 531 kts | 115° |
| 2026-05-05 03:23 | 38.13661 | 92.58843 | 40901 ft | 528 kts | 120° |
| 2026-05-05 03:23 | 38.10406 | 92.67206 | 40881 ft | 528 kts | 121° |
| 2026-05-05 03:24 | 38.07186 | 92.75547 | 40872 ft | 530 kts | 120° |
| 2026-05-05 03:24 | 38.03990 | 92.84011 | 40875 ft | 531 kts | 120° |
| 2026-05-05 03:25 | 38.00816 | 92.92484 | 40863 ft | 531 kts | 120° |
| 2026-05-05 03:25 | 37.97641 | 93.00945 | 40862 ft | 531 kts | 120° |
| 2026-05-05 03:26 | 37.94460 | 93.09388 | 40852 ft | 532 kts | 120° |
| 2026-05-05 03:26 | 37.91262 | 93.17847 | 40856 ft | 533 kts | 120° |
| 2026-05-05 03:27 | 37.88051 | 93.26315 | 40844 ft | 533 kts | 120° |
| 2026-05-05 03:27 | 37.84837 | 93.34769 | 40849 ft | 533 kts | 120° |
| 2026-05-05 03:28 | 37.81615 | 93.43221 | 40833 ft | 533 kts | 120° |
| 2026-05-05 03:28 | 37.78413 | 93.51599 | 40823 ft | 533 kts | 120° |
| 2026-05-05 03:29 | 37.75177 | 93.60040 | 40828 ft | 533 kts | 120° |
| 2026-05-05 03:29 | 37.71941 | 93.68458 | 40826 ft | 533 kts | 120° |
| 2026-05-05 03:30 | 37.68698 | 93.76872 | 40830 ft | 533 kts | 120° |
| 2026-05-05 03:30 | 37.65449 | 93.85280 | 40821 ft | 533 kts | 120° |
| 2026-05-05 03:31 | 37.62179 | 93.93715 | 40823 ft | 535 kts | 120° |
| 2026-05-05 03:31 | 37.58901 | 94.02151 | 40821 ft | 536 kts | 120° |
| 2026-05-05 03:32 | 37.55611 | 94.10596 | 40821 ft | 536 kts | 120° |
| 2026-05-05 03:32 | 37.52343 | 94.18962 | 40828 ft | 536 kts | 120° |
| 2026-05-05 03:33 | 37.49047 | 94.27377 | 40829 ft | 536 kts | 120° |
| 2026-05-05 03:33 | 37.45737 | 94.35803 | 40830 ft | 537 kts | 120° |
| 2026-05-05 03:34 | 37.42420 | 94.44225 | 40836 ft | 537 kts | 120° |
| 2026-05-05 03:34 | 37.39100 | 94.52633 | 40835 ft | 536 kts | 121° |
| 2026-05-05 03:35 | 37.35772 | 94.61038 | 40834 ft | 537 kts | 121° |
| 2026-05-05 03:35 | 37.32431 | 94.69451 | 40841 ft | 537 kts | 121° |
| 2026-05-05 03:36 | 37.29107 | 94.77801 | 40838 ft | 538 kts | 121° |
| 2026-05-05 03:36 | 37.25759 | 94.86192 | 40839 ft | 538 kts | 121° |
| 2026-05-05 03:37 | 37.22404 | 94.94576 | 40838 ft | 537 kts | 121° |
| 2026-05-05 03:37 | 37.19040 | 95.02960 | 40836 ft | 537 kts | 121° |
| 2026-05-05 03:38 | 37.15672 | 95.11329 | 40833 ft | 537 kts | 121° |
| 2026-05-05 03:38 | 37.12297 | 95.19696 | 40824 ft | 537 kts | 121° |
| 2026-05-05 03:39 | 37.08921 | 95.28043 | 40828 ft | 537 kts | 121° |
| 2026-05-05 03:39 | 37.05540 | 95.36382 | 40819 ft | 537 kts | 121° |
| 2026-05-05 03:40 | 37.02718 | 95.43322 | 40819 ft | 539 kts | 121° |
| 2026-05-05 03:40 | 36.98760 | 95.53062 | 40820 ft | 540 kts | 120° |
| 2026-05-05 03:41 | 36.95437 | 95.61498 | 40819 ft | 540 kts | 120° |
| 2026-05-05 03:41 | 36.92673 | 95.68570 | 40811 ft | 540 kts | 120° |
| 2026-05-05 03:42 | 36.89356 | 95.77004 | 40810 ft | 541 kts | 120° |
| 2026-05-05 03:42 | 36.86039 | 95.85385 | 40807 ft | 542 kts | 120° |
| 2026-05-05 03:43 | 36.82683 | 95.93829 | 40800 ft | 543 kts | 120° |
| 2026-05-05 03:43 | 36.79322 | 96.02266 | 40807 ft | 543 kts | 120° |
| 2026-05-05 03:44 | 36.75967 | 96.10701 | 40796 ft | 543 kts | 120° |
| 2026-05-05 03:44 | 36.72617 | 96.19166 | 40805 ft | 545 kts | 120° |
| 2026-05-05 03:45 | 36.69258 | 96.27637 | 40801 ft | 545 kts | 120° |
| 2026-05-05 03:45 | 36.65888 | 96.36109 | 40806 ft | 545 kts | 120° |
| 2026-05-05 03:46 | 36.62518 | 96.44556 | 40797 ft | 545 kts | 120° |
| 2026-05-05 03:46 | 36.59136 | 96.53006 | 40797 ft | 546 kts | 120° |
| 2026-05-05 03:47 | 36.55761 | 96.61428 | 40784 ft | 548 kts | 120° |
| 2026-05-05 03:47 | 36.52406 | 96.69950 | 40797 ft | 549 kts | 120° |
| 2026-05-05 03:48 | 36.49059 | 96.78489 | 40795 ft | 549 kts | 120° |
| 2026-05-05 03:48 | 36.45705 | 96.87008 | 40774 ft | 549 kts | 120° |
| 2026-05-05 03:49 | 36.42331 | 96.95533 | 40773 ft | 550 kts | 120° |
| 2026-05-05 03:49 | 36.38948 | 97.04054 | 40774 ft | 550 kts | 120° |
| 2026-05-05 03:50 | 36.35580 | 97.12516 | 40774 ft | 550 kts | 120° |
| 2026-05-05 03:50 | 36.32182 | 97.21029 | 40784 ft | 550 kts | 120° |
| 2026-05-05 03:51 | 36.28781 | 97.29530 | 40772 ft | 550 kts | 120° |
| 2026-05-05 03:51 | 36.25375 | 97.38020 | 40772 ft | 550 kts | 120° |
| 2026-05-05 03:52 | 36.21966 | 97.46494 | 40757 ft | 550 kts | 120° |
| 2026-05-05 03:52 | 36.18553 | 97.54958 | 40760 ft | 550 kts | 120° |
| 2026-05-05 03:53 | 36.15130 | 97.63423 | 40766 ft | 550 kts | 120° |
| 2026-05-05 03:53 | 36.11798 | 97.71902 | 40768 ft | 551 kts | 119° |
| 2026-05-05 03:54 | 36.08516 | 97.80475 | 40751 ft | 552 kts | 119° |
| 2026-05-05 03:54 | 36.05222 | 97.89040 | 40752 ft | 551 kts | 119° |
| 2026-05-05 03:55 | 36.01902 | 97.97600 | 40750 ft | 551 kts | 119° |
| 2026-05-05 03:55 | 35.98568 | 98.06149 | 40742 ft | 554 kts | 119° |
| 2026-05-05 03:56 | 35.95238 | 98.14664 | 40757 ft | 554 kts | 119° |
| 2026-05-05 03:56 | 35.91880 | 98.23224 | 40784 ft | 554 kts | 119° |
| 2026-05-05 03:57 | 35.88523 | 98.31776 | 40779 ft | 553 kts | 119° |
| 2026-05-05 03:57 | 35.85158 | 98.40321 | 40821 ft | 555 kts | 119° |
| 2026-05-05 03:58 | 35.81771 | 98.48895 | 40816 ft | 557 kts | 119° |
| 2026-05-05 03:58 | 35.78370 | 98.57483 | 40845 ft | 558 kts | 119° |
| 2026-05-05 03:59 | 35.74983 | 98.66016 | 40860 ft | 557 kts | 119° |
| 2026-05-05 03:59 | 35.71572 | 98.74583 | 40881 ft | 558 kts | 119° |
| 2026-05-05 04:00 | 35.68141 | 98.83176 | 40886 ft | 560 kts | 119° |
| 2026-05-05 04:00 | 35.64697 | 98.91780 | 40888 ft | 561 kts | 119° |
| 2026-05-05 04:01 | 35.61243 | 99.00390 | 40893 ft | 561 kts | 119° |
| 2026-05-05 04:01 | 35.57791 | 99.08972 | 40892 ft | 560 kts | 119° |
| 2026-05-05 04:02 | 35.54346 | 99.17513 | 40888 ft | 561 kts | 119° |
| 2026-05-05 04:02 | 35.50873 | 99.26097 | 40882 ft | 562 kts | 119° |
| 2026-05-05 04:03 | 35.47389 | 99.34687 | 40884 ft | 562 kts | 119° |
| 2026-05-05 04:03 | 35.43904 | 99.43259 | 40868 ft | 561 kts | 119° |
| 2026-05-05 04:04 | 35.40412 | 99.51826 | 40870 ft | 561 kts | 119° |
| 2026-05-05 04:04 | 35.36914 | 99.60388 | 40827 ft | 562 kts | 119° |
| 2026-05-05 04:05 | 35.33399 | 99.68965 | 40826 ft | 563 kts | 119° |
| 2026-05-05 04:05 | 35.29885 | 99.77520 | 40823 ft | 561 kts | 119° |
| 2026-05-05 04:06 | 35.26386 | 99.86014 | 40811 ft | 562 kts | 118° |
| 2026-05-05 04:06 | 35.22854 | 99.94569 | 40810 ft | 562 kts | 119° |
| 2026-05-05 04:07 | 35.19321 | 100.03101 | 40795 ft | 562 kts | 119° |
| 2026-05-05 04:07 | 35.15801 | 100.11581 | 40795 ft | 563 kts | 119° |
| 2026-05-05 04:08 | 35.12252 | 100.20109 | 40789 ft | 562 kts | 119° |
| 2026-05-05 04:08 | 35.08700 | 100.28626 | 40796 ft | 562 kts | 118° |
| 2026-05-05 04:09 | 35.05143 | 100.37129 | 40783 ft | 562 kts | 119° |
| 2026-05-05 04:09 | 35.01579 | 100.45630 | 40810 ft | 562 kts | 119° |
| 2026-05-05 04:10 | 34.98031 | 100.54071 | 40819 ft | 562 kts | 119° |
| 2026-05-05 04:10 | 34.94451 | 100.62563 | 40839 ft | 564 kts | 119° |
| 2026-05-05 04:11 | 34.90857 | 100.71071 | 40837 ft | 565 kts | 119° |
| 2026-05-05 04:11 | 34.87257 | 100.79574 | 40848 ft | 564 kts | 119° |
| 2026-05-05 04:12 | 34.83674 | 100.88012 | 40868 ft | 564 kts | 119° |
| 2026-05-05 04:12 | 34.80068 | 100.96482 | 40867 ft | 564 kts | 119° |
| 2026-05-05 04:13 | 34.76456 | 101.04944 | 40875 ft | 563 kts | 119° |
| 2026-05-05 04:13 | 34.72837 | 101.13402 | 40861 ft | 564 kts | 119° |
| 2026-05-05 04:14 | 34.69211 | 101.21855 | 40870 ft | 564 kts | 119° |
| 2026-05-05 04:14 | 34.65576 | 101.30309 | 40878 ft | 564 kts | 119° |
| 2026-05-05 04:15 | 34.61931 | 101.38766 | 40876 ft | 564 kts | 118° |
| 2026-05-05 04:15 | 34.58282 | 101.47213 | 40882 ft | 565 kts | 118° |
| 2026-05-05 04:16 | 34.54651 | 101.55597 | 40879 ft | 564 kts | 118° |
| 2026-05-05 04:16 | 34.50989 | 101.64030 | 40891 ft | 564 kts | 118° |
| 2026-05-05 04:17 | 34.47322 | 101.72454 | 40887 ft | 565 kts | 118° |
| 2026-05-05 04:17 | 34.43649 | 101.80871 | 40902 ft | 565 kts | 118° |
| 2026-05-05 04:18 | 34.39969 | 101.89286 | 40888 ft | 565 kts | 118° |
| 2026-05-05 04:18 | 34.36295 | 101.97662 | 40918 ft | 567 kts | 118° |
| 2026-05-05 04:19 | 34.32585 | 102.06103 | 40940 ft | 567 kts | 118° |
| 2026-05-05 04:19 | 34.28867 | 102.14540 | 40929 ft | 568 kts | 118° |
| 2026-05-05 04:20 | 34.25147 | 102.22962 | 40940 ft | 568 kts | 118° |
| 2026-05-05 04:20 | 34.21444 | 102.31326 | 40940 ft | 568 kts | 118° |
| 2026-05-05 04:21 | 34.17719 | 102.39744 | 40940 ft | 568 kts | 118° |
| 2026-05-05 04:21 | 34.14097 | 102.48211 | 40939 ft | 567 kts | 117° |
| 2026-05-05 04:22 | 34.10499 | 102.56700 | 40941 ft | 567 kts | 117° |
| 2026-05-05 04:22 | 34.06893 | 102.65154 | 40924 ft | 567 kts | 117° |
| 2026-05-05 04:23 | 34.03263 | 102.73603 | 40935 ft | 567 kts | 117° |
| 2026-05-05 04:23 | 33.99618 | 102.82049 | 40927 ft | 568 kts | 117° |
| 2026-05-05 04:24 | 33.95992 | 102.90441 | 40922 ft | 568 kts | 117° |
| 2026-05-05 04:25 | 33.90499 | 103.03117 | 40911 ft | 568 kts | 117° |
| 2026-05-05 04:25 | 33.86828 | 103.11563 | 40902 ft | 568 kts | 117° |
| 2026-05-05 04:26 | 33.83187 | 103.19921 | 40897 ft | 568 kts | 117° |
| 2026-05-05 04:26 | 33.79516 | 103.28325 | 40898 ft | 567 kts | 117° |
| 2026-05-05 04:27 | 33.75840 | 103.36722 | 40897 ft | 567 kts | 117° |
| 2026-05-05 04:27 | 33.72165 | 103.45104 | 40882 ft | 566 kts | 117° |
| 2026-05-05 04:28 | 33.68482 | 103.53471 | 40879 ft | 567 kts | 117° |
| 2026-05-05 04:28 | 33.64789 | 103.61845 | 40895 ft | 567 kts | 117° |
| 2026-05-05 04:29 | 33.61089 | 103.70214 | 40889 ft | 567 kts | 117° |
| 2026-05-05 04:29 | 33.57414 | 103.78508 | 40887 ft | 567 kts | 117° |
| 2026-05-05 04:30 | 33.53705 | 103.86863 | 40911 ft | 568 kts | 117° |
| 2026-05-05 04:30 | 33.50597 | 103.93852 | 40894 ft | 566 kts | 117° |
| 2026-05-05 04:31 | 33.46901 | 104.02137 | 40887 ft | 565 kts | 117° |
| 2026-05-05 04:31 | 33.43189 | 104.10425 | 40911 ft | 566 kts | 117° |
| 2026-05-05 04:32 | 33.39458 | 104.18743 | 40887 ft | 567 kts | 117° |
| 2026-05-05 04:32 | 33.37323 | 104.22697 | 40929 ft | 567 kts | 128° |
| 2026-05-05 04:32 | 33.34681 | 104.26196 | 40922 ft | 567 kts | 139° |
| 2026-05-05 04:32 | 33.31567 | 104.29042 | 40906 ft | 561 kts | 152° |
| 2026-05-05 04:33 | 33.28139 | 104.31246 | 40915 ft | 558 kts | 158° |
| 2026-05-05 04:33 | 33.21119 | 104.35101 | 40937 ft | 558 kts | 160° |
| 2026-05-05 04:34 | 33.13994 | 104.38805 | 40929 ft | 559 kts | 160° |
| 2026-05-05 04:34 | 33.06874 | 104.42532 | 40941 ft | 558 kts | 160° |
| 2026-05-05 04:35 | 32.99774 | 104.46296 | 40943 ft | 558 kts | 160° |
| 2026-05-05 04:35 | 32.92673 | 104.50077 | 40954 ft | 559 kts | 160° |
| 2026-05-05 04:36 | 32.85576 | 104.53853 | 40947 ft | 558 kts | 160° |
| 2026-05-05 04:36 | 32.78436 | 104.57473 | 40957 ft | 555 kts | 166° |
| 2026-05-05 04:36 | 32.74724 | 104.58573 | 40964 ft | 546 kts | 177° |
| 2026-05-05 04:37 | 32.70971 | 104.59049 | 40958 ft | 540 kts | 182° |
| 2026-05-05 04:37 | 32.63483 | 104.59499 | 40968 ft | 538 kts | 184° |
| 2026-05-05 04:38 | 32.55997 | 104.59769 | 40954 ft | 538 kts | 185° |
| 2026-05-05 04:38 | 32.48551 | 104.60066 | 40976 ft | 539 kts | 185° |
| 2026-05-05 04:39 | 32.41055 | 104.60393 | 40975 ft | 539 kts | 185° |
| 2026-05-05 04:39 | 32.33536 | 104.60782 | 40991 ft | 540 kts | 184° |
| 2026-05-05 04:40 | 32.26018 | 104.61206 | 40990 ft | 541 kts | 184° |
| 2026-05-05 04:40 | 32.18543 | 104.61625 | 40985 ft | 540 kts | 184° |
| 2026-05-05 04:41 | 32.11034 | 104.62037 | 40996 ft | 540 kts | 184° |
| 2026-05-05 04:41 | 32.03521 | 104.62446 | 40994 ft | 540 kts | 184° |
| 2026-05-05 04:42 | 31.95991 | 104.62856 | 40995 ft | 542 kts | 184° |
| 2026-05-05 04:42 | 31.88438 | 104.63266 | 40992 ft | 543 kts | 184° |
| 2026-05-05 04:43 | 31.80871 | 104.63677 | 40993 ft | 544 kts | 184° |
| 2026-05-05 04:43 | 31.73310 | 104.64070 | 40977 ft | 543 kts | 185° |
| 2026-05-05 04:44 | 31.65796 | 104.64356 | 40979 ft | 543 kts | 185° |
| 2026-05-05 04:44 | 31.58239 | 104.64628 | 40975 ft | 543 kts | 185° |
| 2026-05-05 04:45 | 31.50674 | 104.64916 | 40969 ft | 543 kts | 185° |
| 2026-05-05 04:45 | 31.43106 | 104.65213 | 40968 ft | 544 kts | 185° |
| 2026-05-05 04:46 | 31.35530 | 104.65513 | 40965 ft | 544 kts | 185° |
| 2026-05-05 04:46 | 31.28016 | 104.65810 | 40968 ft | 544 kts | 185° |
| 2026-05-05 04:47 | 31.20449 | 104.66108 | 40961 ft | 544 kts | 185° |
| 2026-05-05 04:47 | 31.12881 | 104.66406 | 40975 ft | 544 kts | 185° |
| 2026-05-05 04:48 | 31.05310 | 104.66703 | 40978 ft | 544 kts | 185° |
| 2026-05-05 04:48 | 30.97774 | 104.67284 | 40974 ft | 548 kts | 181° |
| 2026-05-05 04:49 | 30.90178 | 104.68244 | 40968 ft | 549 kts | 180° |
| 2026-05-05 04:49 | 30.82575 | 104.69198 | 40978 ft | 549 kts | 181° |
| 2026-05-05 04:50 | 30.74975 | 104.70086 | 40980 ft | 548 kts | 181° |
| 2026-05-05 04:50 | 30.67380 | 104.70940 | 40963 ft | 548 kts | 181° |
| 2026-05-05 04:51 | 30.59776 | 104.71790 | 40985 ft | 549 kts | 181° |
| 2026-05-05 04:51 | 30.52178 | 104.72642 | 40990 ft | 549 kts | 181° |
| 2026-05-05 04:52 | 30.44617 | 104.73485 | 40991 ft | 548 kts | 181° |
| 2026-05-05 04:52 | 30.37017 | 104.74328 | 40994 ft | 548 kts | 181° |
| 2026-05-05 04:53 | 30.29416 | 104.75173 | 40995 ft | 548 kts | 181° |
| 2026-05-05 04:53 | 30.21813 | 104.76017 | 40987 ft | 548 kts | 181° |
| 2026-05-05 04:54 | 30.14215 | 104.76859 | 40988 ft | 548 kts | 181° |
| 2026-05-05 04:54 | 30.06621 | 104.77701 | 40989 ft | 546 kts | 181° |
| 2026-05-05 04:55 | 29.99069 | 104.78538 | 40986 ft | 544 kts | 181° |
| 2026-05-05 04:55 | 29.91536 | 104.79374 | 40986 ft | 544 kts | 181° |
| 2026-05-05 04:56 | 29.84047 | 104.80196 | 40970 ft | 544 kts | 181° |
| 2026-05-05 04:56 | 29.76518 | 104.81023 | 40985 ft | 543 kts | 181° |
| 2026-05-05 04:57 | 29.68986 | 104.81851 | 40976 ft | 542 kts | 181° |
| 2026-05-05 04:57 | 29.61475 | 104.82677 | 40969 ft | 542 kts | 181° |
| 2026-05-05 04:58 | 29.53963 | 104.83501 | 40958 ft | 542 kts | 181° |
| 2026-05-05 04:58 | 29.46492 | 104.84319 | 40964 ft | 542 kts | 181° |
| 2026-05-05 04:59 | 29.38984 | 104.85141 | 40959 ft | 541 kts | 181° |
| 2026-05-05 04:59 | 29.31536 | 104.86864 | 40957 ft | 556 kts | 165° |
| 2026-05-05 05:00 | 29.24337 | 104.90203 | 40950 ft | 559 kts | 161° |
| 2026-05-05 05:00 | 29.17216 | 104.93836 | 40955 ft | 560 kts | 161° |
| 2026-05-05 05:01 | 29.10096 | 104.97493 | 40953 ft | 562 kts | 161° |
| 2026-05-05 05:01 | 29.02937 | 105.01135 | 40945 ft | 562 kts | 161° |
| 2026-05-05 05:02 | 28.95827 | 105.04722 | 40928 ft | 562 kts | 161° |
| 2026-05-05 05:02 | 28.88676 | 105.08320 | 40942 ft | 561 kts | 161° |
| 2026-05-05 05:03 | 28.81527 | 105.11884 | 40939 ft | 560 kts | 161° |
| 2026-05-05 05:03 | 28.74400 | 105.15527 | 40939 ft | 562 kts | 158° |
| 2026-05-05 05:04 | 28.67472 | 105.19735 | 40928 ft | 565 kts | 155° |
| 2026-05-05 05:04 | 28.60642 | 105.24042 | 40930 ft | 564 kts | 156° |
| 2026-05-05 05:05 | 28.53747 | 105.28291 | 40928 ft | 562 kts | 156° |
| 2026-05-05 05:05 | 28.46827 | 105.32475 | 40928 ft | 564 kts | 156° |
| 2026-05-05 05:06 | 28.39874 | 105.36654 | 40925 ft | 566 kts | 156° |
| 2026-05-05 05:06 | 28.32908 | 105.40838 | 40926 ft | 565 kts | 156° |
| 2026-05-05 05:07 | 28.25971 | 105.45003 | 40931 ft | 564 kts | 156° |
| 2026-05-05 05:07 | 28.19087 | 105.49133 | 40934 ft | 563 kts | 156° |
| 2026-05-05 05:08 | 28.12168 | 105.53275 | 40960 ft | 563 kts | 156° |
| 2026-05-05 05:08 | 28.05084 | 105.56966 | 40958 ft | 555 kts | 169° |
| 2026-05-05 05:09 | 27.97609 | 105.58692 | 40976 ft | 545 kts | 178° |
| 2026-05-05 05:09 | 27.90111 | 105.59899 | 40976 ft | 543 kts | 179° |
| 2026-05-05 05:10 | 27.82624 | 105.61114 | 40983 ft | 547 kts | 174° |
| 2026-05-05 05:10 | 27.75396 | 105.64118 | 40978 ft | 560 kts | 159° |
| 2026-05-05 05:11 | 27.68501 | 105.68183 | 41014 ft | 563 kts | 156° |
| 2026-05-05 05:11 | 27.61558 | 105.72257 | 41022 ft | 561 kts | 159° |
| 2026-05-05 05:12 | 27.54507 | 105.76031 | 41020 ft | 561 kts | 160° |
| 2026-05-05 05:12 | 27.47434 | 105.79778 | 41041 ft | 561 kts | 159° |
| 2026-05-05 05:13 | 27.40380 | 105.83553 | 41039 ft | 561 kts | 159° |
| 2026-05-05 05:13 | 27.33333 | 105.87345 | 41047 ft | 561 kts | 159° |
| 2026-05-05 05:14 | 27.26289 | 105.91135 | 41047 ft | 561 kts | 159° |
| 2026-05-05 05:14 | 27.19245 | 105.94918 | 41055 ft | 561 kts | 159° |
| 2026-05-05 05:15 | 27.12251 | 105.98666 | 41053 ft | 560 kts | 159° |
| 2026-05-05 05:15 | 27.05414 | 106.02942 | 41061 ft | 569 kts | 146° |
| 2026-05-05 05:15 | 27.02448 | 106.05895 | 41062 ft | 573 kts | 134° |
| 2026-05-05 05:16 | 26.99851 | 106.09295 | 41068 ft | 574 kts | 130° |
| 2026-05-05 05:16 | 26.94972 | 106.16407 | 41069 ft | 575 kts | 127° |
| 2026-05-05 05:17 | 26.91009 | 106.22410 | 41074 ft | 576 kts | 127° |
| 2026-05-05 05:17 | 26.86221 | 106.29611 | 41084 ft | 576 kts | 128° |
| 2026-05-05 05:18 | 26.81389 | 106.36785 | 41108 ft | 576 kts | 128° |
| 2026-05-05 05:18 | 26.76542 | 106.43935 | 41094 ft | 576 kts | 128° |
| 2026-05-05 05:19 | 26.71727 | 106.51025 | 41123 ft | 575 kts | 128° |
| 2026-05-05 05:19 | 26.66883 | 106.58149 | 41132 ft | 575 kts | 128° |
| 2026-05-05 05:20 | 26.62039 | 106.65265 | 41145 ft | 575 kts | 128° |
| 2026-05-05 05:20 | 26.57178 | 106.72397 | 41155 ft | 576 kts | 128° |
| 2026-05-05 05:21 | 26.52215 | 106.79420 | 41148 ft | 575 kts | 135° |
| 2026-05-05 05:21 | 26.46637 | 106.85829 | 41150 ft | 575 kts | 137° |
| 2026-05-05 05:22 | 26.40946 | 106.92082 | 41160 ft | 574 kts | 138° |
| 2026-05-05 05:22 | 26.35269 | 106.98265 | 41145 ft | 574 kts | 138° |
| 2026-05-05 05:23 | 26.29567 | 107.04490 | 41146 ft | 573 kts | 138° |
| 2026-05-05 05:23 | 26.23884 | 107.10731 | 41146 ft | 573 kts | 137° |
| 2026-05-05 05:24 | 26.18197 | 107.16979 | 41144 ft | 573 kts | 137° |
| 2026-05-05 05:24 | 26.12518 | 107.23208 | 41133 ft | 573 kts | 137° |
| 2026-05-05 05:25 | 26.06836 | 107.29428 | 41131 ft | 573 kts | 137° |
| 2026-05-05 05:25 | 26.01188 | 107.35603 | 41127 ft | 572 kts | 137° |
| 2026-05-05 05:26 | 25.95508 | 107.41803 | 41119 ft | 572 kts | 138° |
| 2026-05-05 05:26 | 25.89813 | 107.48010 | 41114 ft | 573 kts | 138° |
| 2026-05-05 05:27 | 25.84122 | 107.54205 | 41114 ft | 573 kts | 138° |
| 2026-05-05 05:27 | 25.75603 | 107.63461 | 41111 ft | 572 kts | 138° |
| 2026-05-05 05:28 | 25.69922 | 107.69628 | 41113 ft | 570 kts | 138° |
| 2026-05-05 05:28 | 25.64271 | 107.75810 | 41121 ft | 570 kts | 137° |
| 2026-05-05 05:29 | 25.58624 | 107.81999 | 41107 ft | 571 kts | 137° |
| 2026-05-05 05:29 | 25.53001 | 107.88147 | 41110 ft | 572 kts | 138° |
| 2026-05-05 05:30 | 25.46941 | 107.93758 | 41107 ft | 564 kts | 153° |
| 2026-05-05 05:30 | 25.43469 | 107.95700 | 41074 ft | 555 kts | 164° |
| 2026-05-05 05:30 | 25.39807 | 107.96909 | 41101 ft | 544 kts | 175° |
| 2026-05-05 05:31 | 25.32365 | 107.98097 | 41097 ft | 538 kts | 180° |
| 2026-05-05 05:31 | 25.24925 | 107.98941 | 41090 ft | 537 kts | 181° |
| 2026-05-05 05:32 | 25.17483 | 107.99776 | 41092 ft | 538 kts | 180° |
| 2026-05-05 05:32 | 25.10041 | 108.00658 | 41079 ft | 537 kts | 180° |
| 2026-05-05 05:33 | 25.02624 | 108.01561 | 41084 ft | 536 kts | 180° |
| 2026-05-05 05:33 | 24.95203 | 108.02466 | 41070 ft | 535 kts | 180° |
| 2026-05-05 05:34 | 24.87807 | 108.03365 | 41063 ft | 535 kts | 180° |
| 2026-05-05 05:34 | 24.80402 | 108.04262 | 41058 ft | 535 kts | 180° |
| 2026-05-05 05:35 | 24.73070 | 108.05151 | 41057 ft | 533 kts | 180° |
| 2026-05-05 05:35 | 24.65698 | 108.06043 | 41051 ft | 532 kts | 180° |
| 2026-05-05 05:36 | 24.58332 | 108.06931 | 41054 ft | 532 kts | 180° |
| 2026-05-05 05:36 | 24.50967 | 108.07823 | 41048 ft | 532 kts | 180° |
| 2026-05-05 05:37 | 24.43605 | 108.08720 | 41055 ft | 531 kts | 179° |
| 2026-05-05 05:37 | 24.36256 | 108.09610 | 41061 ft | 531 kts | 180° |
| 2026-05-05 05:38 | 24.28954 | 108.10495 | 41059 ft | 531 kts | 179° |
| 2026-05-05 05:38 | 24.21614 | 108.11387 | 41065 ft | 531 kts | 180° |
| 2026-05-05 05:39 | 24.14269 | 108.12279 | 41069 ft | 531 kts | 180° |
| 2026-05-05 05:39 | 24.06929 | 108.13166 | 41068 ft | 531 kts | 180° |
| 2026-05-05 05:40 | 23.99579 | 108.14055 | 41061 ft | 530 kts | 179° |
| 2026-05-05 05:40 | 23.92298 | 108.15116 | 41064 ft | 536 kts | 172° |
| 2026-05-05 05:41 | 23.85315 | 108.18202 | 41072 ft | 550 kts | 150° |
| 2026-05-05 05:41 | 23.82274 | 108.20768 | 41070 ft | 555 kts | 139° |
| 2026-05-05 05:41 | 23.79731 | 108.23939 | 41076 ft | 558 kts | 126° |
| 2026-05-05 05:42 | 23.77783 | 108.27615 | 41077 ft | 559 kts | 114° |
| 2026-05-05 05:42 | 23.76525 | 108.31619 | 41076 ft | 558 kts | 101° |
| 2026-05-05 05:42 | 23.75992 | 108.35787 | 41080 ft | 554 kts | 89° |
| 2026-05-05 05:42 | 23.76183 | 108.39963 | 41071 ft | 548 kts | 77° |
| 2026-05-05 05:43 | 23.77072 | 108.43982 | 41086 ft | 541 kts | 65° |
| 2026-05-05 05:43 | 23.78374 | 108.47835 | 41072 ft | 543 kts | 69° |
| 2026-05-05 05:43 | 23.79642 | 108.56041 | 41078 ft | 555 kts | 87° |
| 2026-05-05 05:44 | 23.79442 | 108.64485 | 41076 ft | 557 kts | 91° |
| 2026-05-05 05:44 | 23.78930 | 108.72871 | 41085 ft | 557 kts | 92° |
| 2026-05-05 05:45 | 23.78374 | 108.81324 | 41085 ft | 558 kts | 91° |
| 2026-05-05 05:45 | 23.77847 | 108.89782 | 41087 ft | 558 kts | 91° |
| 2026-05-05 05:46 | 23.77334 | 108.98240 | 41081 ft | 558 kts | 91° |
| 2026-05-05 05:46 | 23.76822 | 109.06707 | 41090 ft | 558 kts | 91° |
| 2026-05-05 05:47 | 23.76127 | 109.15108 | 41088 ft | 560 kts | 99° |
| 2026-05-05 05:47 | 23.74607 | 109.23460 | 41082 ft | 562 kts | 101° |
| 2026-05-05 05:48 | 23.72926 | 109.31797 | 41083 ft | 562 kts | 101° |
| 2026-05-05 05:48 | 23.71219 | 109.40121 | 41078 ft | 562 kts | 101° |
| 2026-05-05 05:49 | 23.69522 | 109.48441 | 41078 ft | 562 kts | 101° |
| 2026-05-05 05:49 | 23.67825 | 109.56788 | 41079 ft | 562 kts | 101° |
| 2026-05-05 05:50 | 23.66131 | 109.65119 | 41077 ft | 562 kts | 101° |
| 2026-05-05 05:50 | 23.64427 | 109.73401 | 41077 ft | 562 kts | 102° |
| 2026-05-05 05:51 | 23.62699 | 109.81729 | 41077 ft | 563 kts | 102° |
| 2026-05-05 05:51 | 23.60970 | 109.90054 | 41077 ft | 563 kts | 102° |
| 2026-05-05 05:52 | 23.59234 | 109.98396 | 41079 ft | 564 kts | 102° |
| 2026-05-05 05:52 | 23.57496 | 110.06739 | 41079 ft | 564 kts | 102° |
| 2026-05-05 05:53 | 23.55755 | 110.15073 | 41080 ft | 564 kts | 102° |
| 2026-05-05 05:53 | 23.54017 | 110.23365 | 41072 ft | 564 kts | 102° |
| 2026-05-05 05:54 | 23.52265 | 110.31700 | 41071 ft | 564 kts | 102° |
| 2026-05-05 05:54 | 23.50519 | 110.40029 | 41069 ft | 564 kts | 102° |
| 2026-05-05 05:55 | 23.48820 | 110.48397 | 41069 ft | 564 kts | 101° |
| 2026-05-05 05:55 | 23.47132 | 110.56750 | 41066 ft | 565 kts | 101° |
| 2026-05-05 05:56 | 23.45430 | 110.65108 | 41068 ft | 565 kts | 102° |
| 2026-05-05 05:56 | 23.43721 | 110.73460 | 41064 ft | 565 kts | 101° |
| 2026-05-05 05:57 | 23.41989 | 110.81755 | 41060 ft | 565 kts | 102° |
| 2026-05-05 05:57 | 23.40215 | 110.90085 | 41067 ft | 565 kts | 102° |
| 2026-05-05 05:58 | 23.38441 | 110.98424 | 41062 ft | 565 kts | 102° |
| 2026-05-05 05:58 | 23.36669 | 111.06756 | 41067 ft | 565 kts | 102° |
| 2026-05-05 05:59 | 23.34896 | 111.15090 | 41069 ft | 565 kts | 102° |
| 2026-05-05 05:59 | 23.33168 | 111.23428 | 41066 ft | 565 kts | 102° |
| 2026-05-05 06:00 | 23.31474 | 111.31780 | 41072 ft | 566 kts | 102° |
| 2026-05-05 06:00 | 23.29769 | 111.40144 | 41069 ft | 566 kts | 102° |
| 2026-05-05 06:01 | 23.28064 | 111.48437 | 41071 ft | 566 kts | 102° |
| 2026-05-05 06:01 | 23.26336 | 111.56789 | 41077 ft | 565 kts | 102° |
| 2026-05-05 06:02 | 23.24571 | 111.65131 | 41078 ft | 566 kts | 102° |
| 2026-05-05 06:02 | 23.22796 | 111.73459 | 41078 ft | 565 kts | 102° |
| 2026-05-05 06:03 | 23.21021 | 111.81787 | 41065 ft | 565 kts | 102° |
| 2026-05-05 06:03 | 23.19270 | 111.90128 | 41080 ft | 566 kts | 102° |
| 2026-05-05 06:04 | 23.17553 | 111.98414 | 41085 ft | 565 kts | 102° |
| 2026-05-05 06:04 | 23.15821 | 112.06747 | 41093 ft | 566 kts | 102° |
| 2026-05-05 06:05 | 23.14075 | 112.15097 | 41087 ft | 566 kts | 102° |
| 2026-05-05 06:05 | 23.12325 | 112.23436 | 41089 ft | 566 kts | 102° |
| 2026-05-05 06:06 | 23.10867 | 112.30360 | 41090 ft | 566 kts | 102° |
| 2026-05-05 06:06 | 23.09110 | 112.38698 | 41092 ft | 566 kts | 102° |
| 2026-05-05 06:07 | 23.07174 | 112.48394 | 41100 ft | 565 kts | 95° |
| 2026-05-05 06:07 | 23.06526 | 112.55463 | 41082 ft | 565 kts | 93° |
| 2026-05-05 06:08 | 23.05932 | 112.63971 | 41087 ft | 565 kts | 92° |
| 2026-05-05 06:08 | 23.05383 | 112.72484 | 41103 ft | 565 kts | 92° |
| 2026-05-05 06:09 | 23.04820 | 112.80993 | 41106 ft | 565 kts | 92° |
| 2026-05-05 06:09 | 23.04238 | 112.89498 | 41101 ft | 565 kts | 93° |
| 2026-05-05 06:10 | 23.03646 | 112.98008 | 41099 ft | 565 kts | 93° |
| 2026-05-05 06:10 | 23.02988 | 113.06505 | 41097 ft | 566 kts | 97° |
| 2026-05-05 06:11 | 23.02134 | 113.10676 | 41093 ft | 566 kts | 108° |
| 2026-05-05 06:11 | 23.00642 | 113.14608 | 41108 ft | 563 kts | 120° |
| 2026-05-05 06:11 | 22.98523 | 113.18151 | 41109 ft | 558 kts | 131° |
| 2026-05-05 06:11 | 22.95873 | 113.21200 | 41096 ft | 550 kts | 143° |
| 2026-05-05 06:12 | 22.92861 | 113.23606 | 41077 ft | 526 kts | 154° |
| 2026-05-05 06:12 | 22.89685 | 113.25335 | 40769 ft | 509 kts | 165° |
| 2026-05-05 06:12 | 22.86330 | 113.26449 | 40156 ft | 500 kts | 175° |
| 2026-05-05 06:12 | 22.82906 | 113.26936 | 39395 ft | 495 kts | 183° |
| 2026-05-05 06:13 | 22.79458 | 113.27407 | 38650 ft | 504 kts | 176° |
| 2026-05-05 06:13 | 22.76008 | 113.28274 | 37765 ft | 512 kts | 172° |
| 2026-05-05 06:13 | 22.72568 | 113.29310 | 36941 ft | 515 kts | 170° |
| 2026-05-05 06:13 | 22.69117 | 113.30431 | 36131 ft | 518 kts | 169° |
| 2026-05-05 06:14 | 22.65673 | 113.31603 | 35359 ft | 520 kts | 169° |
| 2026-05-05 06:14 | 22.62220 | 113.32803 | 34606 ft | 523 kts | 169° |
| 2026-05-05 06:14 | 22.58750 | 113.34023 | 33808 ft | 524 kts | 168° |
| 2026-05-05 06:14 | 22.55272 | 113.35241 | 32965 ft | 525 kts | 168° |
| 2026-05-05 06:15 | 22.51805 | 113.36448 | 32156 ft | 524 kts | 168° |
| 2026-05-05 06:15 | 22.48333 | 113.37651 | 31361 ft | 524 kts | 168° |
| 2026-05-05 06:15 | 22.44861 | 113.38851 | 30586 ft | 523 kts | 168° |
| 2026-05-05 06:15 | 22.41399 | 113.40044 | 29807 ft | 521 kts | 168° |
| 2026-05-05 06:16 | 22.37950 | 113.41233 | 28924 ft | 520 kts | 168° |
| 2026-05-05 06:16 | 22.34519 | 113.42416 | 28068 ft | 511 kts | 168° |
| 2026-05-05 06:16 | 22.31191 | 113.43571 | 27249 ft | 493 kts | 168° |
| 2026-05-05 06:16 | 22.27980 | 113.44687 | 26426 ft | 476 kts | 168° |
| 2026-05-05 06:17 | 22.24877 | 113.45762 | 25653 ft | 461 kts | 168° |
| 2026-05-05 06:17 | 22.21866 | 113.46801 | 24904 ft | 447 kts | 168° |
| 2026-05-05 06:17 | 22.18958 | 113.47839 | 24161 ft | 435 kts | 167° |
| 2026-05-05 06:17 | 22.16131 | 113.48878 | 23429 ft | 423 kts | 166° |
| 2026-05-05 06:18 | 22.13418 | 113.49877 | 22600 ft | 412 kts | 167° |
| 2026-05-05 06:18 | 22.10739 | 113.50862 | 21760 ft | 402 kts | 167° |
| 2026-05-05 06:18 | 22.08121 | 113.51822 | 20966 ft | 392 kts | 167° |
| 2026-05-05 06:18 | 22.05563 | 113.52759 | 20178 ft | 383 kts | 167° |
| 2026-05-05 06:19 | 22.03069 | 113.53672 | 19415 ft | 374 kts | 167° |
| 2026-05-05 06:19 | 22.00629 | 113.54565 | 18672 ft | 366 kts | 167° |
| 2026-05-05 06:19 | 21.98232 | 113.55442 | 17888 ft | 359 kts | 167° |
| 2026-05-05 06:19 | 21.95920 | 113.56408 | 17044 ft | 355 kts | 162° |
| 2026-05-05 06:20 | 21.93676 | 113.57474 | 16228 ft | 349 kts | 161° |
| 2026-05-05 06:20 | 21.91489 | 113.58564 | 15418 ft | 345 kts | 156° |
| 2026-05-05 06:20 | 21.89636 | 113.60196 | 14659 ft | 348 kts | 133° |
| 2026-05-05 06:20 | 21.88454 | 113.62457 | 13916 ft | 348 kts | 110° |
| 2026-05-05 06:21 | 21.88116 | 113.65016 | 13077 ft | 346 kts | 87° |
| 2026-05-05 06:21 | 21.88615 | 113.67520 | 12326 ft | 340 kts | 70° |
| 2026-05-05 06:21 | 21.89449 | 113.69841 | 11596 ft | 333 kts | 67° |
| 2026-05-05 06:21 | 21.90602 | 113.71999 | 10875 ft | 325 kts | 51° |
| 2026-05-05 06:22 | 21.92023 | 113.73846 | 10279 ft | 316 kts | 47° |
| 2026-05-05 06:22 | 21.93442 | 113.75576 | 9681 ft | 308 kts | 47° |
| 2026-05-05 06:22 | 21.94864 | 113.77266 | 9060 ft | 301 kts | 44° |
| 2026-05-05 06:22 | 21.96522 | 113.78573 | 8443 ft | 293 kts | 28° |
| 2026-05-05 06:23 | 21.98370 | 113.79441 | 7838 ft | 289 kts | 12° |
| 2026-05-05 06:23 | 22.00360 | 113.79596 | 7266 ft | 293 kts | 352° |
| 2026-05-05 06:23 | 22.01655 | 113.79426 | 6895 ft | 297 kts | 348° |
| 2026-05-05 06:23 | 22.03265 | 113.79130 | 6574 ft | 296 kts | 347° |
| 2026-05-05 06:24 | 22.05264 | 113.78725 | 6312 ft | 286 kts | 347° |
| 2026-05-05 06:24 | 22.07189 | 113.78323 | 5937 ft | 277 kts | 346° |
| 2026-05-05 06:24 | 22.09054 | 113.77925 | 5561 ft | 270 kts | 346° |
| 2026-05-05 06:24 | 22.10852 | 113.77452 | 5199 ft | 270 kts | 338° |
| 2026-05-05 06:25 | 22.12570 | 113.76683 | 4813 ft | 264 kts | 333° |
| 2026-05-05 06:25 | 22.14189 | 113.75872 | 4441 ft | 250 kts | 332° |
| 2026-05-05 06:25 | 22.15732 | 113.75093 | 4073 ft | 240 kts | 333° |
| 2026-05-05 06:25 | 22.17217 | 113.74344 | 3691 ft | 231 kts | 333° |
| 2026-05-05 06:26 | 22.18660 | 113.73627 | 3386 ft | 227 kts | 335° |
| 2026-05-05 06:26 | 22.20183 | 113.73367 | 3100 ft | 220 kts | 10° |
| 2026-05-05 06:26 | 22.21571 | 113.73941 | 2812 ft | 210 kts | 30° |
| 2026-05-05 06:26 | 22.22835 | 113.74680 | 2533 ft | 202 kts | 32° |
| 2026-05-05 06:27 | 22.24034 | 113.75398 | 2329 ft | 192 kts | 31° |
| 2026-05-05 06:27 | 22.25660 | 113.77397 | 1995 ft | 173 kts | 70° |
| 2026-05-05 06:27 | 22.26019 | 113.78640 | 1989 ft | 173 kts | 73° |
| 2026-05-05 06:28 | 22.26409 | 113.79859 | 1951 ft | 171 kts | 72° |
| 2026-05-05 06:28 | 22.26808 | 113.81054 | 1750 ft | 171 kts | 72° |
| 2026-05-05 06:28 | 22.27199 | 113.82261 | 1501 ft | 170 kts | 72° |
| 2026-05-05 06:28 | 22.27586 | 113.83471 | 1282 ft | 170 kts | 72° |
| 2026-05-05 06:29 | 22.27962 | 113.84642 | 1062 ft | 158 kts | 72° |
| 2026-05-05 06:29 | 22.28309 | 113.85722 | 860 ft | 146 kts | 71° |
| 2026-05-05 06:29 | 22.28630 | 113.86722 | 675 ft | 135 kts | 70° |
| 2026-05-05 06:29 | 22.28929 | 113.87653 | 502 ft | 128 kts | 70° |
| 2026-05-05 06:30 | 22.29222 | 113.88549 | 310 ft | 125 kts | 70° |
| 2026-05-05 06:30 | 22.29510 | 113.89443 | 162 ft | 126 kts | 70° |
| 2026-05-05 06:30 | 22.29798 | 113.90347 | 49 ft | 128 kts | 70° |
| 2026-05-05 06:30 | 22.30059 | 113.91163 | 38 ft | 93 kts | 71° |
| 2026-05-05 06:31 | 22.30209 | 113.91631 | 38 ft | 38 kts | 71° |
| 2026-05-05 06:31 | 22.30269 | 113.91814 | 39 ft | 24 kts | 70° |
| 2026-05-05 06:31 | 22.30341 | 113.91967 | 39 ft | 22 kts | 54° |
| 2026-05-05 06:31 | 22.30441 | 113.92072 | 39 ft | 17 kts | 40° |
| 2026-05-05 06:32 | 22.30537 | 113.92161 | 38 ft | 19 kts | 40° |
| 2026-05-05 06:32 | 22.30598 | 113.92264 | 38 ft | 16 kts | 71° |
| 2026-05-05 06:32 | 22.30642 | 113.92399 | 38 ft | 22 kts | 70° |
| 2026-05-05 06:32 | 22.30695 | 113.92563 | 38 ft | 24 kts | 71° |
| 2026-05-05 06:33 | 22.30752 | 113.92742 | 38 ft | 26 kts | 71° |
| 2026-05-05 06:33 | 22.30813 | 113.92932 | 38 ft | 28 kts | 71° |
| 2026-05-05 06:33 | 22.30879 | 113.93136 | 38 ft | 30 kts | 71° |
| 2026-05-05 06:33 | 22.30953 | 113.93324 | 38 ft | 11 kts | 62° |
| 2026-05-05 06:34 | 22.30990 | 113.93400 | 38 ft | 13 kts | 58° |
| 2026-05-05 06:34 | 22.31058 | 113.93418 | 38 ft | 11 kts | 341° |
| 2026-05-05 06:34 | 22.31112 | 113.93445 | 38 ft | 9 kts | 72° |
| 2026-05-05 06:34 | 22.31127 | 113.93494 | 38 ft | 0 kts | 71° |
| 2026-05-05 06:35 | 22.31130 | 113.93504 | 38 ft | 1 kts | 71° |
| 2026-05-05 06:35 | 22.31132 | 113.93508 | 38 ft | 0 kts | 71° |